<?xml version="1.0" encoding="UTF-8" standalone="no" ?>
<gpx xmlns="http://www.topografix.com/GPX/1/1" xmlns:xsi="http://www.w3.org/2001/XMLSchema-instance" xsi:schemaLocation="http://www.topografix.com/GPX/1/1 http://www.topografix.com/GPX/1/1/gpx.xsd" version="1.1" creator="VisuGPX - https://www.visugpx.com">
  <metadata>
    <name>Jour 6</name>
  </metadata>
  <trk>
    <name><![CDATA[Jour 6_3]]></name>
    <trkseg>
      <trkpt lat="42.20694" lon="-1.58568">
        <ele>467.22</ele>
        <time>2021-08-04T10:59:54Z</time>
      </trkpt>
      <trkpt lat="42.20736" lon="-1.58559">
        <ele>465.2</ele>
        <time>2021-08-04T11:00:00Z</time>
      </trkpt>
      <trkpt lat="42.20786" lon="-1.58534">
        <ele>461.3</ele>
        <time>2021-08-04T11:00:06Z</time>
      </trkpt>
      <trkpt lat="42.20822" lon="-1.5852">
        <ele>457.85</ele>
        <time>2021-08-04T11:00:10Z</time>
      </trkpt>
      <trkpt lat="42.20853" lon="-1.58517">
        <ele>455.06</ele>
        <time>2021-08-04T11:00:13Z</time>
      </trkpt>
      <trkpt lat="42.20895" lon="-1.58498">
        <ele>450.72</ele>
        <time>2021-08-04T11:00:17Z</time>
      </trkpt>
      <trkpt lat="42.20913" lon="-1.58482">
        <ele>448.47</ele>
        <time>2021-08-04T11:00:19Z</time>
      </trkpt>
      <trkpt lat="42.20946" lon="-1.58447">
        <ele>443.94</ele>
        <time>2021-08-04T11:00:23Z</time>
      </trkpt>
      <trkpt lat="42.20972" lon="-1.58425">
        <ele>440.65</ele>
        <time>2021-08-04T11:00:26Z</time>
      </trkpt>
      <trkpt lat="42.21001" lon="-1.58405">
        <ele>437.52</ele>
        <time>2021-08-04T11:00:29Z</time>
      </trkpt>
      <trkpt lat="42.21032" lon="-1.58388">
        <ele>434.3</ele>
        <time>2021-08-04T11:00:32Z</time>
      </trkpt>
      <trkpt lat="42.21051" lon="-1.58379">
        <ele>432.45</ele>
        <time>2021-08-04T11:00:34Z</time>
      </trkpt>
      <trkpt lat="42.21083" lon="-1.58373">
        <ele>428.28</ele>
        <time>2021-08-04T11:00:37Z</time>
      </trkpt>
      <trkpt lat="42.21128" lon="-1.58372">
        <ele>424.41</ele>
        <time>2021-08-04T11:00:41Z</time>
      </trkpt>
      <trkpt lat="42.21158" lon="-1.58363">
        <ele>421.34</ele>
        <time>2021-08-04T11:00:44Z</time>
      </trkpt>
      <trkpt lat="42.21184" lon="-1.5835">
        <ele>418.7</ele>
        <time>2021-08-04T11:00:47Z</time>
      </trkpt>
      <trkpt lat="42.21233" lon="-1.58357">
        <ele>414.85</ele>
        <time>2021-08-04T11:00:52Z</time>
      </trkpt>
      <trkpt lat="42.21291" lon="-1.58379">
        <ele>410.96</ele>
        <time>2021-08-04T11:00:57Z</time>
      </trkpt>
      <trkpt lat="42.21334" lon="-1.58401">
        <ele>407.3</ele>
        <time>2021-08-04T11:01:01Z</time>
      </trkpt>
      <trkpt lat="42.21355" lon="-1.58411">
        <ele>405.53</ele>
        <time>2021-08-04T11:01:03Z</time>
      </trkpt>
      <trkpt lat="42.21409" lon="-1.58411">
        <ele>401.06</ele>
        <time>2021-08-04T11:01:09Z</time>
      </trkpt>
      <trkpt lat="42.21463" lon="-1.58417">
        <ele>397.62</ele>
        <time>2021-08-04T11:01:14Z</time>
      </trkpt>
      <trkpt lat="42.21524" lon="-1.58407">
        <ele>394.57</ele>
        <time>2021-08-04T11:01:19Z</time>
      </trkpt>
      <trkpt lat="42.21576" lon="-1.58381">
        <ele>391.57</ele>
        <time>2021-08-04T11:01:23Z</time>
      </trkpt>
      <trkpt lat="42.21626" lon="-1.58372">
        <ele>387.78</ele>
        <time>2021-08-04T11:01:27Z</time>
      </trkpt>
      <trkpt lat="42.21692" lon="-1.58387">
        <ele>383.62</ele>
        <time>2021-08-04T11:01:32Z</time>
      </trkpt>
      <trkpt lat="42.21759" lon="-1.584">
        <ele>380.14</ele>
        <time>2021-08-04T11:01:37Z</time>
      </trkpt>
      <trkpt lat="42.21827" lon="-1.58413">
        <ele>376.43</ele>
        <time>2021-08-04T11:01:42Z</time>
      </trkpt>
      <trkpt lat="42.2184" lon="-1.58415">
        <ele>375.51</ele>
        <time>2021-08-04T11:01:43Z</time>
      </trkpt>
      <trkpt lat="42.21911" lon="-1.58373">
        <ele>371.43</ele>
        <time>2021-08-04T11:01:49Z</time>
      </trkpt>
      <trkpt lat="42.2196" lon="-1.58312">
        <ele>367.75</ele>
        <time>2021-08-04T11:01:54Z</time>
      </trkpt>
      <trkpt lat="42.21971" lon="-1.58302">
        <ele>367.02</ele>
        <time>2021-08-04T11:01:55Z</time>
      </trkpt>
      <trkpt lat="42.22038" lon="-1.58268">
        <ele>362.95</ele>
        <time>2021-08-04T11:02:01Z</time>
      </trkpt>
      <trkpt lat="42.22108" lon="-1.58229">
        <ele>359.89</ele>
        <time>2021-08-04T11:02:08Z</time>
      </trkpt>
      <trkpt lat="42.22188" lon="-1.58186">
        <ele>359.98</ele>
        <time>2021-08-04T11:02:14Z</time>
      </trkpt>
      <trkpt lat="42.22265" lon="-1.581">
        <ele>362.8</ele>
        <time>2021-08-04T11:02:21Z</time>
      </trkpt>
      <trkpt lat="42.22335" lon="-1.58041">
        <ele>366.82</ele>
        <time>2021-08-04T11:02:27Z</time>
      </trkpt>
      <trkpt lat="42.22347" lon="-1.58031">
        <ele>367.54</ele>
        <time>2021-08-04T11:02:28Z</time>
      </trkpt>
      <trkpt lat="42.22416" lon="-1.57941">
        <ele>371.66</ele>
        <time>2021-08-04T11:02:35Z</time>
      </trkpt>
      <trkpt lat="42.22485" lon="-1.57891">
        <ele>375.05</ele>
        <time>2021-08-04T11:02:42Z</time>
      </trkpt>
      <trkpt lat="42.22529" lon="-1.57842">
        <ele>374.96</ele>
        <time>2021-08-04T11:02:47Z</time>
      </trkpt>
      <trkpt lat="42.2263" lon="-1.5777">
        <ele>371.49</ele>
        <time>2021-08-04T11:02:56Z</time>
      </trkpt>
      <trkpt lat="42.22696" lon="-1.57731">
        <ele>368.17</ele>
        <time>2021-08-04T11:03:02Z</time>
      </trkpt>
      <trkpt lat="42.22756" lon="-1.57747">
        <ele>365.1</ele>
        <time>2021-08-04T11:03:07Z</time>
      </trkpt>
      <trkpt lat="42.22791" lon="-1.57767">
        <ele>363</ele>
        <time>2021-08-04T11:03:10Z</time>
      </trkpt>
      <trkpt lat="42.22828" lon="-1.57777">
        <ele>360.92</ele>
        <time>2021-08-04T11:03:13Z</time>
      </trkpt>
      <trkpt lat="42.22873" lon="-1.57806">
        <ele>358.59</ele>
        <time>2021-08-04T11:03:17Z</time>
      </trkpt>
      <trkpt lat="42.22952" lon="-1.57837">
        <ele>354.9</ele>
        <time>2021-08-04T11:03:23Z</time>
      </trkpt>
      <trkpt lat="42.23105" lon="-1.57845">
        <ele>351.23</ele>
        <time>2021-08-04T11:03:34Z</time>
      </trkpt>
      <trkpt lat="42.2323" lon="-1.57848">
        <ele>348.13</ele>
        <time>2021-08-04T11:03:44Z</time>
      </trkpt>
      <trkpt lat="42.23364" lon="-1.57851">
        <ele>346.09</ele>
        <time>2021-08-04T11:03:53Z</time>
      </trkpt>
      <trkpt lat="42.23568" lon="-1.57845">
        <ele>344.05</ele>
        <time>2021-08-04T11:04:05Z</time>
      </trkpt>
      <trkpt lat="42.2371" lon="-1.57805">
        <ele>342.39</ele>
        <time>2021-08-04T11:04:14Z</time>
      </trkpt>
      <trkpt lat="42.23819" lon="-1.57813">
        <ele>341.49</ele>
        <time>2021-08-04T11:04:21Z</time>
      </trkpt>
      <trkpt lat="42.23953" lon="-1.578">
        <ele>341.12</ele>
        <time>2021-08-04T11:04:29Z</time>
      </trkpt>
      <trkpt lat="42.24099" lon="-1.57782">
        <ele>341.14</ele>
        <time>2021-08-04T11:04:37Z</time>
      </trkpt>
      <trkpt lat="42.24257" lon="-1.57774">
        <ele>341.49</ele>
        <time>2021-08-04T11:04:45Z</time>
      </trkpt>
      <trkpt lat="42.24414" lon="-1.57784">
        <ele>340.25</ele>
        <time>2021-08-04T11:04:55Z</time>
      </trkpt>
      <trkpt lat="42.24498" lon="-1.57776">
        <ele>340.11</ele>
        <time>2021-08-04T11:05:00Z</time>
      </trkpt>
      <trkpt lat="42.2462" lon="-1.57721">
        <ele>341.57</ele>
        <time>2021-08-04T11:05:08Z</time>
      </trkpt>
      <trkpt lat="42.24713" lon="-1.57699">
        <ele>343.83</ele>
        <time>2021-08-04T11:05:15Z</time>
      </trkpt>
      <trkpt lat="42.24785" lon="-1.5769">
        <ele>346.32</ele>
        <time>2021-08-04T11:05:21Z</time>
      </trkpt>
      <trkpt lat="42.24798" lon="-1.57687">
        <ele>346.51</ele>
        <time>2021-08-04T11:05:22Z</time>
      </trkpt>
      <trkpt lat="42.24962" lon="-1.57597">
        <ele>346.15</ele>
        <time>2021-08-04T11:05:34Z</time>
      </trkpt>
      <trkpt lat="42.25045" lon="-1.57553">
        <ele>344.72</ele>
        <time>2021-08-04T11:05:41Z</time>
      </trkpt>
      <trkpt lat="42.2518" lon="-1.57533">
        <ele>344.24</ele>
        <time>2021-08-04T11:05:51Z</time>
      </trkpt>
      <trkpt lat="42.25335" lon="-1.57519">
        <ele>347.37</ele>
        <time>2021-08-04T11:06:03Z</time>
      </trkpt>
      <trkpt lat="42.25392" lon="-1.57514">
        <ele>350.47</ele>
        <time>2021-08-04T11:06:08Z</time>
      </trkpt>
      <trkpt lat="42.25449" lon="-1.57508">
        <ele>354.09</ele>
        <time>2021-08-04T11:06:13Z</time>
      </trkpt>
      <trkpt lat="42.25499" lon="-1.57502">
        <ele>357.22</ele>
        <time>2021-08-04T11:06:17Z</time>
      </trkpt>
      <trkpt lat="42.25563" lon="-1.57495">
        <ele>360.5</ele>
        <time>2021-08-04T11:06:22Z</time>
      </trkpt>
      <trkpt lat="42.25641" lon="-1.57485">
        <ele>364.03</ele>
        <time>2021-08-04T11:06:28Z</time>
      </trkpt>
      <trkpt lat="42.25736" lon="-1.57476">
        <ele>367.65</ele>
        <time>2021-08-04T11:06:35Z</time>
      </trkpt>
      <trkpt lat="42.25787" lon="-1.5747">
        <ele>370.62</ele>
        <time>2021-08-04T11:06:39Z</time>
      </trkpt>
      <trkpt lat="42.2584" lon="-1.57486">
        <ele>374.51</ele>
        <time>2021-08-04T11:06:43Z</time>
      </trkpt>
      <trkpt lat="42.25865" lon="-1.57507">
        <ele>376.79</ele>
        <time>2021-08-04T11:06:45Z</time>
      </trkpt>
      <trkpt lat="42.25923" lon="-1.57531">
        <ele>381.66</ele>
        <time>2021-08-04T11:06:49Z</time>
      </trkpt>
      <trkpt lat="42.25968" lon="-1.57533">
        <ele>386</ele>
        <time>2021-08-04T11:06:52Z</time>
      </trkpt>
      <trkpt lat="42.25981" lon="-1.5753">
        <ele>387.48</ele>
        <time>2021-08-04T11:06:53Z</time>
      </trkpt>
      <trkpt lat="42.25995" lon="-1.57523">
        <ele>388.97</ele>
        <time>2021-08-04T11:06:54Z</time>
      </trkpt>
      <trkpt lat="42.26007" lon="-1.57515">
        <ele>390.5</ele>
        <time>2021-08-04T11:06:55Z</time>
      </trkpt>
      <trkpt lat="42.26019" lon="-1.57504">
        <ele>392.15</ele>
        <time>2021-08-04T11:06:56Z</time>
      </trkpt>
      <trkpt lat="42.26041" lon="-1.57486">
        <ele>395.5</ele>
        <time>2021-08-04T11:06:58Z</time>
      </trkpt>
      <trkpt lat="42.2609" lon="-1.57479">
        <ele>401.48</ele>
        <time>2021-08-04T11:07:02Z</time>
      </trkpt>
      <trkpt lat="42.26115" lon="-1.5749">
        <ele>403.93</ele>
        <time>2021-08-04T11:07:04Z</time>
      </trkpt>
      <trkpt lat="42.2614" lon="-1.57502">
        <ele>405.88</ele>
        <time>2021-08-04T11:07:06Z</time>
      </trkpt>
      <trkpt lat="42.26195" lon="-1.5751">
        <ele>408.65</ele>
        <time>2021-08-04T11:07:10Z</time>
      </trkpt>
      <trkpt lat="42.26325" lon="-1.57498">
        <ele>409.66</ele>
        <time>2021-08-04T11:07:19Z</time>
      </trkpt>
      <trkpt lat="42.26457" lon="-1.57507">
        <ele>409.04</ele>
        <time>2021-08-04T11:07:28Z</time>
      </trkpt>
      <trkpt lat="42.26515" lon="-1.57509">
        <ele>408.82</ele>
        <time>2021-08-04T11:07:32Z</time>
      </trkpt>
      <trkpt lat="42.26587" lon="-1.57533">
        <ele>408.52</ele>
        <time>2021-08-04T11:07:37Z</time>
      </trkpt>
      <trkpt lat="42.26615" lon="-1.57554">
        <ele>408.42</ele>
        <time>2021-08-04T11:07:39Z</time>
      </trkpt>
      <trkpt lat="42.26727" lon="-1.57577">
        <ele>407.64</ele>
        <time>2021-08-04T11:07:46Z</time>
      </trkpt>
      <trkpt lat="42.26775" lon="-1.57564">
        <ele>407.14</ele>
        <time>2021-08-04T11:07:49Z</time>
      </trkpt>
      <trkpt lat="42.26881" lon="-1.57534">
        <ele>404.6</ele>
        <time>2021-08-04T11:07:58Z</time>
      </trkpt>
      <trkpt lat="42.26954" lon="-1.57527">
        <ele>403.34</ele>
        <time>2021-08-04T11:08:04Z</time>
      </trkpt>
      <trkpt lat="42.27012" lon="-1.57531">
        <ele>402.73</ele>
        <time>2021-08-04T11:08:09Z</time>
      </trkpt>
      <trkpt lat="42.27068" lon="-1.57508">
        <ele>401.3</ele>
        <time>2021-08-04T11:08:14Z</time>
      </trkpt>
      <trkpt lat="42.27172" lon="-1.57499">
        <ele>399.98</ele>
        <time>2021-08-04T11:08:22Z</time>
      </trkpt>
      <trkpt lat="42.27302" lon="-1.57497">
        <ele>400.75</ele>
        <time>2021-08-04T11:08:30Z</time>
      </trkpt>
      <trkpt lat="42.2736" lon="-1.57549">
        <ele>401.06</ele>
        <time>2021-08-04T11:08:35Z</time>
      </trkpt>
      <trkpt lat="42.27421" lon="-1.5759">
        <ele>402.39</ele>
        <time>2021-08-04T11:08:39Z</time>
      </trkpt>
      <trkpt lat="42.27474" lon="-1.57616">
        <ele>402.76</ele>
        <time>2021-08-04T11:08:42Z</time>
      </trkpt>
      <trkpt lat="42.27587" lon="-1.57639">
        <ele>403.41</ele>
        <time>2021-08-04T11:08:48Z</time>
      </trkpt>
      <trkpt lat="42.27685" lon="-1.57667">
        <ele>403.74</ele>
        <time>2021-08-04T11:08:54Z</time>
      </trkpt>
      <trkpt lat="42.27748" lon="-1.57693">
        <ele>400.55</ele>
        <time>2021-08-04T11:08:59Z</time>
      </trkpt>
      <trkpt lat="42.2782" lon="-1.57723">
        <ele>397.44</ele>
        <time>2021-08-04T11:09:06Z</time>
      </trkpt>
      <trkpt lat="42.27878" lon="-1.57755">
        <ele>393.94</ele>
        <time>2021-08-04T11:09:13Z</time>
      </trkpt>
      <trkpt lat="42.27967" lon="-1.57807">
        <ele>391.13</ele>
        <time>2021-08-04T11:09:22Z</time>
      </trkpt>
      <trkpt lat="42.28082" lon="-1.57894">
        <ele>393.47</ele>
        <time>2021-08-04T11:09:29Z</time>
      </trkpt>
      <trkpt lat="42.28111" lon="-1.57922">
        <ele>394.14</ele>
        <time>2021-08-04T11:09:31Z</time>
      </trkpt>
      <trkpt lat="42.28125" lon="-1.57939">
        <ele>394.25</ele>
        <time>2021-08-04T11:09:32Z</time>
      </trkpt>
      <trkpt lat="42.28198" lon="-1.58044">
        <ele>392.47</ele>
        <time>2021-08-04T11:09:38Z</time>
      </trkpt>
      <trkpt lat="42.28283" lon="-1.58103">
        <ele>390.06</ele>
        <time>2021-08-04T11:09:43Z</time>
      </trkpt>
      <trkpt lat="42.28345" lon="-1.58188">
        <ele>389.33</ele>
        <time>2021-08-04T11:09:48Z</time>
      </trkpt>
      <trkpt lat="42.2843" lon="-1.58376">
        <ele>386.29</ele>
        <time>2021-08-04T11:09:57Z</time>
      </trkpt>
      <trkpt lat="42.28459" lon="-1.5841">
        <ele>383.81</ele>
        <time>2021-08-04T11:10:00Z</time>
      </trkpt>
      <trkpt lat="42.28501" lon="-1.58478">
        <ele>379.3</ele>
        <time>2021-08-04T11:10:05Z</time>
      </trkpt>
      <trkpt lat="42.28544" lon="-1.58656">
        <ele>376.02</ele>
        <time>2021-08-04T11:10:15Z</time>
      </trkpt>
      <trkpt lat="42.28566" lon="-1.58712">
        <ele>374.81</ele>
        <time>2021-08-04T11:10:19Z</time>
      </trkpt>
      <trkpt lat="42.28584" lon="-1.58771">
        <ele>373.87</ele>
        <time>2021-08-04T11:10:23Z</time>
      </trkpt>
      <trkpt lat="42.28603" lon="-1.5889">
        <ele>372.98</ele>
        <time>2021-08-04T11:10:32Z</time>
      </trkpt>
      <trkpt lat="42.28603" lon="-1.58931">
        <ele>373.46</ele>
        <time>2021-08-04T11:10:38Z</time>
      </trkpt>
      <trkpt lat="42.28605" lon="-1.58934">
        <ele>373.52</ele>
        <time>2021-08-04T11:10:39Z</time>
      </trkpt>
      <trkpt lat="42.28607" lon="-1.58936">
        <ele>373.56</ele>
        <time>2021-08-04T11:10:40Z</time>
      </trkpt>
      <trkpt lat="42.28608" lon="-1.58938">
        <ele>373.56</ele>
        <time>2021-08-04T11:10:41Z</time>
      </trkpt>
      <trkpt lat="42.2861" lon="-1.58939">
        <ele>373.58</ele>
        <time>2021-08-04T11:10:42Z</time>
      </trkpt>
      <trkpt lat="42.28638" lon="-1.58958">
        <ele>373.85</ele>
        <time>2021-08-04T11:10:47Z</time>
      </trkpt>
      <trkpt lat="42.28713" lon="-1.59036">
        <ele>375</ele>
        <time>2021-08-04T11:10:55Z</time>
      </trkpt>
      <trkpt lat="42.28817" lon="-1.59144">
        <ele>377.63</ele>
        <time>2021-08-04T11:11:05Z</time>
      </trkpt>
      <trkpt lat="42.28877" lon="-1.5915">
        <ele>378.81</ele>
        <time>2021-08-04T11:11:12Z</time>
      </trkpt>
      <trkpt lat="42.2889" lon="-1.5914">
        <ele>378.86</ele>
        <time>2021-08-04T11:11:15Z</time>
      </trkpt>
      <trkpt lat="42.28923" lon="-1.59113">
        <ele>378.87</ele>
        <time>2021-08-04T11:11:20Z</time>
      </trkpt>
      <trkpt lat="42.29047" lon="-1.59062">
        <ele>379.07</ele>
        <time>2021-08-04T11:11:32Z</time>
      </trkpt>
      <trkpt lat="42.29086" lon="-1.59044">
        <ele>379.2</ele>
        <time>2021-08-04T11:11:36Z</time>
      </trkpt>
      <trkpt lat="42.29121" lon="-1.58983">
        <ele>379.08</ele>
        <time>2021-08-04T11:11:42Z</time>
      </trkpt>
      <trkpt lat="42.29149" lon="-1.5883">
        <ele>378.68</ele>
        <time>2021-08-04T11:11:55Z</time>
      </trkpt>
      <trkpt lat="42.2915" lon="-1.58819">
        <ele>378.66</ele>
        <time>2021-08-04T11:11:56Z</time>
      </trkpt>
      <trkpt lat="42.2919" lon="-1.5879">
        <ele>378.58</ele>
        <time>2021-08-04T11:12:03Z</time>
      </trkpt>
      <trkpt lat="42.29291" lon="-1.58807">
        <ele>378.74</ele>
        <time>2021-08-04T11:12:14Z</time>
      </trkpt>
      <trkpt lat="42.29376" lon="-1.58764">
        <ele>378.8</ele>
        <time>2021-08-04T11:12:24Z</time>
      </trkpt>
      <trkpt lat="42.294" lon="-1.5875">
        <ele>378.91</ele>
        <time>2021-08-04T11:12:27Z</time>
      </trkpt>
      <trkpt lat="42.29427" lon="-1.58694">
        <ele>378.89</ele>
        <time>2021-08-04T11:12:33Z</time>
      </trkpt>
      <trkpt lat="42.2943" lon="-1.58659">
        <ele>378.77</ele>
        <time>2021-08-04T11:12:36Z</time>
      </trkpt>
      <trkpt lat="42.29474" lon="-1.58615">
        <ele>378.75</ele>
        <time>2021-08-04T11:12:43Z</time>
      </trkpt>
      <trkpt lat="42.29494" lon="-1.58617">
        <ele>378.83</ele>
        <time>2021-08-04T11:12:45Z</time>
      </trkpt>
      <trkpt lat="42.2952" lon="-1.58613">
        <ele>379.12</ele>
        <time>2021-08-04T11:12:48Z</time>
      </trkpt>
      <trkpt lat="42.29559" lon="-1.58643">
        <ele>379.2</ele>
        <time>2021-08-04T11:12:53Z</time>
      </trkpt>
      <trkpt lat="42.29599" lon="-1.58669">
        <ele>379.2</ele>
        <time>2021-08-04T11:12:58Z</time>
      </trkpt>
      <trkpt lat="42.29653" lon="-1.58665">
        <ele>379.39</ele>
        <time>2021-08-04T11:13:05Z</time>
      </trkpt>
      <trkpt lat="42.29659" lon="-1.58661">
        <ele>379.36</ele>
        <time>2021-08-04T11:13:06Z</time>
      </trkpt>
      <trkpt lat="42.29663" lon="-1.58655">
        <ele>379.35</ele>
        <time>2021-08-04T11:13:07Z</time>
      </trkpt>
      <trkpt lat="42.2967" lon="-1.5861">
        <ele>379.35</ele>
        <time>2021-08-04T11:13:11Z</time>
      </trkpt>
      <trkpt lat="42.29666" lon="-1.58551">
        <ele>379.47</ele>
        <time>2021-08-04T11:13:15Z</time>
      </trkpt>
      <trkpt lat="42.29676" lon="-1.58489">
        <ele>379.66</ele>
        <time>2021-08-04T11:13:19Z</time>
      </trkpt>
      <trkpt lat="42.29768" lon="-1.5823">
        <ele>380.6</ele>
        <time>2021-08-04T11:13:34Z</time>
      </trkpt>
      <trkpt lat="42.29778" lon="-1.58202">
        <ele>380.64</ele>
        <time>2021-08-04T11:13:36Z</time>
      </trkpt>
      <trkpt lat="42.29822" lon="-1.58164">
        <ele>380.19</ele>
        <time>2021-08-04T11:13:41Z</time>
      </trkpt>
      <trkpt lat="42.29849" lon="-1.58147">
        <ele>379.32</ele>
        <time>2021-08-04T11:13:48Z</time>
      </trkpt>
      <trkpt lat="42.2986" lon="-1.58051">
        <ele>378.45</ele>
        <time>2021-08-04T11:13:59Z</time>
      </trkpt>
      <trkpt lat="42.29862" lon="-1.57994">
        <ele>378.74</ele>
        <time>2021-08-04T11:14:04Z</time>
      </trkpt>
      <trkpt lat="42.29855" lon="-1.5795">
        <ele>378.91</ele>
        <time>2021-08-04T11:14:08Z</time>
      </trkpt>
      <trkpt lat="42.29874" lon="-1.57904">
        <ele>378.91</ele>
        <time>2021-08-04T11:14:14Z</time>
      </trkpt>
      <trkpt lat="42.29884" lon="-1.57904">
        <ele>378.91</ele>
        <time>2021-08-04T11:14:15Z</time>
      </trkpt>
      <trkpt lat="42.29904" lon="-1.57901">
        <ele>378.96</ele>
        <time>2021-08-04T11:14:17Z</time>
      </trkpt>
      <trkpt lat="42.29953" lon="-1.57871">
        <ele>379.69</ele>
        <time>2021-08-04T11:14:22Z</time>
      </trkpt>
      <trkpt lat="42.29985" lon="-1.57835">
        <ele>380.23</ele>
        <time>2021-08-04T11:14:26Z</time>
      </trkpt>
      <trkpt lat="42.29999" lon="-1.57773">
        <ele>380.35</ele>
        <time>2021-08-04T11:14:31Z</time>
      </trkpt>
      <trkpt lat="42.29997" lon="-1.57718">
        <ele>380.33</ele>
        <time>2021-08-04T11:14:35Z</time>
      </trkpt>
      <trkpt lat="42.30019" lon="-1.57667">
        <ele>380.23</ele>
        <time>2021-08-04T11:14:40Z</time>
      </trkpt>
      <trkpt lat="42.30092" lon="-1.57595">
        <ele>380.98</ele>
        <time>2021-08-04T11:14:47Z</time>
      </trkpt>
      <trkpt lat="42.30139" lon="-1.57557">
        <ele>381.24</ele>
        <time>2021-08-04T11:14:51Z</time>
      </trkpt>
      <trkpt lat="42.30169" lon="-1.57486">
        <ele>381.16</ele>
        <time>2021-08-04T11:14:56Z</time>
      </trkpt>
      <trkpt lat="42.30221" lon="-1.57419">
        <ele>380.36</ele>
        <time>2021-08-04T11:15:03Z</time>
      </trkpt>
      <trkpt lat="42.30244" lon="-1.57414">
        <ele>380.22</ele>
        <time>2021-08-04T11:15:05Z</time>
      </trkpt>
      <trkpt lat="42.30287" lon="-1.57358">
        <ele>379.95</ele>
        <time>2021-08-04T11:15:11Z</time>
      </trkpt>
      <trkpt lat="42.30309" lon="-1.57272">
        <ele>379.46</ele>
        <time>2021-08-04T11:15:18Z</time>
      </trkpt>
      <trkpt lat="42.30304" lon="-1.57157">
        <ele>379.35</ele>
        <time>2021-08-04T11:15:25Z</time>
      </trkpt>
      <trkpt lat="42.30279" lon="-1.56936">
        <ele>379.74</ele>
        <time>2021-08-04T11:15:38Z</time>
      </trkpt>
      <trkpt lat="42.30276" lon="-1.56911">
        <ele>379.73</ele>
        <time>2021-08-04T11:15:40Z</time>
      </trkpt>
      <trkpt lat="42.30283" lon="-1.56865">
        <ele>379.63</ele>
        <time>2021-08-04T11:15:44Z</time>
      </trkpt>
      <trkpt lat="42.30289" lon="-1.56785">
        <ele>379.52</ele>
        <time>2021-08-04T11:15:50Z</time>
      </trkpt>
      <trkpt lat="42.30327" lon="-1.5673">
        <ele>379.52</ele>
        <time>2021-08-04T11:15:55Z</time>
      </trkpt>
      <trkpt lat="42.30415" lon="-1.56678">
        <ele>380.2</ele>
        <time>2021-08-04T11:16:03Z</time>
      </trkpt>
      <trkpt lat="42.30435" lon="-1.56676">
        <ele>380.27</ele>
        <time>2021-08-04T11:16:05Z</time>
      </trkpt>
      <trkpt lat="42.30474" lon="-1.56616">
        <ele>379.58</ele>
        <time>2021-08-04T11:16:12Z</time>
      </trkpt>
      <trkpt lat="42.30471" lon="-1.56601">
        <ele>379.49</ele>
        <time>2021-08-04T11:16:13Z</time>
      </trkpt>
      <trkpt lat="42.30455" lon="-1.56522">
        <ele>379.32</ele>
        <time>2021-08-04T11:16:19Z</time>
      </trkpt>
      <trkpt lat="42.30484" lon="-1.56473">
        <ele>379.38</ele>
        <time>2021-08-04T11:16:25Z</time>
      </trkpt>
      <trkpt lat="42.30536" lon="-1.56425">
        <ele>379.39</ele>
        <time>2021-08-04T11:16:32Z</time>
      </trkpt>
      <trkpt lat="42.30541" lon="-1.56387">
        <ele>379.28</ele>
        <time>2021-08-04T11:16:35Z</time>
      </trkpt>
      <trkpt lat="42.30536" lon="-1.56188">
        <ele>379.58</ele>
        <time>2021-08-04T11:16:47Z</time>
      </trkpt>
      <trkpt lat="42.30536" lon="-1.56175">
        <ele>379.58</ele>
        <time>2021-08-04T11:16:48Z</time>
      </trkpt>
      <trkpt lat="42.30554" lon="-1.5613">
        <ele>379.27</ele>
        <time>2021-08-04T11:16:54Z</time>
      </trkpt>
      <trkpt lat="42.30619" lon="-1.56078">
        <ele>379.06</ele>
        <time>2021-08-04T11:17:02Z</time>
      </trkpt>
      <trkpt lat="42.30725" lon="-1.56001">
        <ele>379.31</ele>
        <time>2021-08-04T11:17:12Z</time>
      </trkpt>
      <trkpt lat="42.30767" lon="-1.56">
        <ele>379.22</ele>
        <time>2021-08-04T11:17:16Z</time>
      </trkpt>
      <trkpt lat="42.30797" lon="-1.56012">
        <ele>379.19</ele>
        <time>2021-08-04T11:17:19Z</time>
      </trkpt>
      <trkpt lat="42.30861" lon="-1.55979">
        <ele>379.32</ele>
        <time>2021-08-04T11:17:26Z</time>
      </trkpt>
      <trkpt lat="42.30866" lon="-1.55966">
        <ele>379.33</ele>
        <time>2021-08-04T11:17:27Z</time>
      </trkpt>
      <trkpt lat="42.30923" lon="-1.55858">
        <ele>379.21</ele>
        <time>2021-08-04T11:17:36Z</time>
      </trkpt>
      <trkpt lat="42.30933" lon="-1.55815">
        <ele>379.18</ele>
        <time>2021-08-04T11:17:40Z</time>
      </trkpt>
      <trkpt lat="42.30945" lon="-1.55677">
        <ele>379.36</ele>
        <time>2021-08-04T11:17:49Z</time>
      </trkpt>
      <trkpt lat="42.30961" lon="-1.55519">
        <ele>378.95</ele>
        <time>2021-08-04T11:18:00Z</time>
      </trkpt>
      <trkpt lat="42.31003" lon="-1.55468">
        <ele>378.74</ele>
        <time>2021-08-04T11:18:06Z</time>
      </trkpt>
      <trkpt lat="42.31014" lon="-1.55467">
        <ele>378.77</ele>
        <time>2021-08-04T11:18:07Z</time>
      </trkpt>
      <trkpt lat="42.31077" lon="-1.55469">
        <ele>378.73</ele>
        <time>2021-08-04T11:18:15Z</time>
      </trkpt>
      <trkpt lat="42.31103" lon="-1.55502">
        <ele>378.57</ele>
        <time>2021-08-04T11:18:21Z</time>
      </trkpt>
      <trkpt lat="42.31151" lon="-1.55505">
        <ele>378.47</ele>
        <time>2021-08-04T11:18:26Z</time>
      </trkpt>
      <trkpt lat="42.3116" lon="-1.555">
        <ele>378.4</ele>
        <time>2021-08-04T11:18:27Z</time>
      </trkpt>
      <trkpt lat="42.31223" lon="-1.55466">
        <ele>377.68</ele>
        <time>2021-08-04T11:18:36Z</time>
      </trkpt>
      <trkpt lat="42.31316" lon="-1.55459">
        <ele>377.26</ele>
        <time>2021-08-04T11:18:47Z</time>
      </trkpt>
      <trkpt lat="42.3133" lon="-1.55459">
        <ele>377.2</ele>
        <time>2021-08-04T11:18:49Z</time>
      </trkpt>
      <trkpt lat="42.31376" lon="-1.55486">
        <ele>377.16</ele>
        <time>2021-08-04T11:18:55Z</time>
      </trkpt>
      <trkpt lat="42.31462" lon="-1.55583">
        <ele>375.19</ele>
        <time>2021-08-04T11:19:08Z</time>
      </trkpt>
      <trkpt lat="42.31554" lon="-1.55643">
        <ele>372.6</ele>
        <time>2021-08-04T11:19:22Z</time>
      </trkpt>
      <trkpt lat="42.31562" lon="-1.55647">
        <ele>372.42</ele>
        <time>2021-08-04T11:19:23Z</time>
      </trkpt>
      <trkpt lat="42.31646" lon="-1.5565">
        <ele>369.88</ele>
        <time>2021-08-04T11:19:32Z</time>
      </trkpt>
      <trkpt lat="42.31696" lon="-1.55651">
        <ele>368.19</ele>
        <time>2021-08-04T11:19:37Z</time>
      </trkpt>
      <trkpt lat="42.31801" lon="-1.55688">
        <ele>364.76</ele>
        <time>2021-08-04T11:19:47Z</time>
      </trkpt>
      <trkpt lat="42.31966" lon="-1.55742">
        <ele>362</ele>
        <time>2021-08-04T11:20:02Z</time>
      </trkpt>
      <trkpt lat="42.31987" lon="-1.55752">
        <ele>361.52</ele>
        <time>2021-08-04T11:20:04Z</time>
      </trkpt>
      <trkpt lat="42.32023" lon="-1.55795">
        <ele>360.61</ele>
        <time>2021-08-04T11:20:08Z</time>
      </trkpt>
      <trkpt lat="42.32058" lon="-1.55867">
        <ele>359.87</ele>
        <time>2021-08-04T11:20:13Z</time>
      </trkpt>
      <trkpt lat="42.32054" lon="-1.55945">
        <ele>358.82</ele>
        <time>2021-08-04T11:20:18Z</time>
      </trkpt>
      <trkpt lat="42.32047" lon="-1.5596">
        <ele>358.68</ele>
        <time>2021-08-04T11:20:19Z</time>
      </trkpt>
      <trkpt lat="42.31967" lon="-1.56112">
        <ele>357.95</ele>
        <time>2021-08-04T11:20:31Z</time>
      </trkpt>
      <trkpt lat="42.31909" lon="-1.56225">
        <ele>360.31</ele>
        <time>2021-08-04T11:20:42Z</time>
      </trkpt>
      <trkpt lat="42.31859" lon="-1.56326">
        <ele>360.37</ele>
        <time>2021-08-04T11:20:52Z</time>
      </trkpt>
      <trkpt lat="42.31818" lon="-1.56437">
        <ele>359.6</ele>
        <time>2021-08-04T11:21:02Z</time>
      </trkpt>
      <trkpt lat="42.31788" lon="-1.56525">
        <ele>356.18</ele>
        <time>2021-08-04T11:21:12Z</time>
      </trkpt>
      <trkpt lat="42.31777" lon="-1.56568">
        <ele>352.93</ele>
        <time>2021-08-04T11:21:20Z</time>
      </trkpt>
      <trkpt lat="42.31792" lon="-1.56621">
        <ele>350.71</ele>
        <time>2021-08-04T11:21:32Z</time>
      </trkpt>
      <trkpt lat="42.31815" lon="-1.56684">
        <ele>350.07</ele>
        <time>2021-08-04T11:21:43Z</time>
      </trkpt>
      <trkpt lat="42.3184" lon="-1.56749">
        <ele>349.46</ele>
        <time>2021-08-04T11:21:52Z</time>
      </trkpt>
      <trkpt lat="42.31851" lon="-1.56796">
        <ele>349.07</ele>
        <time>2021-08-04T11:22:00Z</time>
      </trkpt>
      <trkpt lat="42.31849" lon="-1.56838">
        <ele>348.73</ele>
        <time>2021-08-04T11:22:08Z</time>
      </trkpt>
      <trkpt lat="42.31849" lon="-1.56839">
        <ele>348.3</ele>
        <time>2021-08-04T11:22:17Z</time>
      </trkpt>
      <trkpt lat="42.31866" lon="-1.5686">
        <ele>348.33</ele>
        <time>2021-08-04T11:22:22Z</time>
      </trkpt>
      <trkpt lat="42.31952" lon="-1.56912">
        <ele>348.43</ele>
        <time>2021-08-04T11:22:34Z</time>
      </trkpt>
      <trkpt lat="42.32034" lon="-1.56966">
        <ele>349.13</ele>
        <time>2021-08-04T11:22:48Z</time>
      </trkpt>
      <trkpt lat="42.32018" lon="-1.57023">
        <ele>348.81</ele>
        <time>2021-08-04T11:22:56Z</time>
      </trkpt>
      <trkpt lat="42.31983" lon="-1.57122">
        <ele>347.5</ele>
        <time>2021-08-04T11:23:07Z</time>
      </trkpt>
      <trkpt lat="42.31967" lon="-1.57171">
        <ele>347.16</ele>
        <time>2021-08-04T11:23:12Z</time>
      </trkpt>
      <trkpt lat="42.31966" lon="-1.57233">
        <ele>346.67</ele>
        <time>2021-08-04T11:23:18Z</time>
      </trkpt>
      <trkpt lat="42.31977" lon="-1.57336">
        <ele>345.55</ele>
        <time>2021-08-04T11:23:30Z</time>
      </trkpt>
      <trkpt lat="42.31982" lon="-1.57399">
        <ele>344.32</ele>
        <time>2021-08-04T11:23:40Z</time>
      </trkpt>
      <trkpt lat="42.31986" lon="-1.57414">
        <ele>343.68</ele>
        <time>2021-08-04T11:23:48Z</time>
      </trkpt>
      <trkpt lat="42.31987" lon="-1.57417">
        <ele>343.63</ele>
        <time>2021-08-04T11:23:49Z</time>
      </trkpt>
      <trkpt lat="42.32" lon="-1.5742">
        <ele>343.34</ele>
        <time>2021-08-04T11:23:53Z</time>
      </trkpt>
      <trkpt lat="42.32048" lon="-1.57408">
        <ele>342.89</ele>
        <time>2021-08-04T11:24:02Z</time>
      </trkpt>
      <trkpt lat="42.32078" lon="-1.57407">
        <ele>342.4</ele>
        <time>2021-08-04T11:24:16Z</time>
      </trkpt>
      <trkpt lat="42.32079" lon="-1.5741">
        <ele>342.44</ele>
        <time>2021-08-04T11:24:35Z</time>
      </trkpt>
      <trkpt lat="42.32079" lon="-1.5741">
        <ele>342.78</ele>
        <time>2021-08-04T11:25:10Z</time>
      </trkpt>
      <trkpt lat="42.32086" lon="-1.5741">
        <ele>342.64</ele>
        <time>2021-08-04T11:35:04Z</time>
      </trkpt>
      <trkpt lat="42.32085" lon="-1.5741">
        <ele>342.64</ele>
        <time>2021-08-04T11:35:25Z</time>
      </trkpt>
      <trkpt lat="42.32082" lon="-1.57406">
        <ele>342.64</ele>
        <time>2021-08-04T11:35:29Z</time>
      </trkpt>
      <trkpt lat="42.32096" lon="-1.57399">
        <ele>341.04</ele>
        <time>2021-08-04T11:35:33Z</time>
      </trkpt>
      <trkpt lat="42.32129" lon="-1.57412">
        <ele>341.13</ele>
        <time>2021-08-04T11:35:39Z</time>
      </trkpt>
      <trkpt lat="42.3218" lon="-1.5751">
        <ele>342.06</ele>
        <time>2021-08-04T11:35:47Z</time>
      </trkpt>
      <trkpt lat="42.32254" lon="-1.57611">
        <ele>342.99</ele>
        <time>2021-08-04T11:35:55Z</time>
      </trkpt>
      <trkpt lat="42.32395" lon="-1.57742">
        <ele>340.66</ele>
        <time>2021-08-04T11:36:05Z</time>
      </trkpt>
      <trkpt lat="42.32611" lon="-1.57941">
        <ele>338.35</ele>
        <time>2021-08-04T11:36:19Z</time>
      </trkpt>
      <trkpt lat="42.32839" lon="-1.58148">
        <ele>338.55</ele>
        <time>2021-08-04T11:36:33Z</time>
      </trkpt>
      <trkpt lat="42.33117" lon="-1.58403">
        <ele>335.76</ele>
        <time>2021-08-04T11:36:49Z</time>
      </trkpt>
      <trkpt lat="42.33233" lon="-1.58535">
        <ele>332.88</ele>
        <time>2021-08-04T11:36:57Z</time>
      </trkpt>
      <trkpt lat="42.33356" lon="-1.58737">
        <ele>333.47</ele>
        <time>2021-08-04T11:37:07Z</time>
      </trkpt>
      <trkpt lat="42.33475" lon="-1.58929">
        <ele>334.62</ele>
        <time>2021-08-04T11:37:16Z</time>
      </trkpt>
      <trkpt lat="42.33637" lon="-1.59071">
        <ele>334.65</ele>
        <time>2021-08-04T11:37:26Z</time>
      </trkpt>
      <trkpt lat="42.33789" lon="-1.59196">
        <ele>332.89</ele>
        <time>2021-08-04T11:37:37Z</time>
      </trkpt>
      <trkpt lat="42.33833" lon="-1.59233">
        <ele>331.05</ele>
        <time>2021-08-04T11:37:43Z</time>
      </trkpt>
      <trkpt lat="42.33844" lon="-1.5924">
        <ele>329.5</ele>
        <time>2021-08-04T11:37:48Z</time>
      </trkpt>
      <trkpt lat="42.33859" lon="-1.59228">
        <ele>328.91</ele>
        <time>2021-08-04T11:37:52Z</time>
      </trkpt>
      <trkpt lat="42.33926" lon="-1.59152">
        <ele>329.68</ele>
        <time>2021-08-04T11:38:00Z</time>
      </trkpt>
      <trkpt lat="42.34" lon="-1.5908">
        <ele>333.23</ele>
        <time>2021-08-04T11:38:06Z</time>
      </trkpt>
      <trkpt lat="42.34013" lon="-1.59067">
        <ele>333.99</ele>
        <time>2021-08-04T11:38:07Z</time>
      </trkpt>
      <trkpt lat="42.34049" lon="-1.58966">
        <ele>337.75</ele>
        <time>2021-08-04T11:38:12Z</time>
      </trkpt>
      <trkpt lat="42.34058" lon="-1.58897">
        <ele>340.29</ele>
        <time>2021-08-04T11:38:15Z</time>
      </trkpt>
      <trkpt lat="42.34099" lon="-1.58788">
        <ele>344.46</ele>
        <time>2021-08-04T11:38:20Z</time>
      </trkpt>
      <trkpt lat="42.34159" lon="-1.58675">
        <ele>348.17</ele>
        <time>2021-08-04T11:38:25Z</time>
      </trkpt>
      <trkpt lat="42.3427" lon="-1.5847">
        <ele>351.21</ele>
        <time>2021-08-04T11:38:34Z</time>
      </trkpt>
      <trkpt lat="42.34471" lon="-1.58096">
        <ele>351.86</ele>
        <time>2021-08-04T11:38:50Z</time>
      </trkpt>
      <trkpt lat="42.34695" lon="-1.57679">
        <ele>354.92</ele>
        <time>2021-08-04T11:39:08Z</time>
      </trkpt>
      <trkpt lat="42.34899" lon="-1.57299">
        <ele>356.11</ele>
        <time>2021-08-04T11:39:24Z</time>
      </trkpt>
      <trkpt lat="42.35059" lon="-1.57002">
        <ele>356.19</ele>
        <time>2021-08-04T11:39:38Z</time>
      </trkpt>
      <trkpt lat="42.35201" lon="-1.56714">
        <ele>356.24</ele>
        <time>2021-08-04T11:39:52Z</time>
      </trkpt>
      <trkpt lat="42.35301" lon="-1.56514">
        <ele>352.76</ele>
        <time>2021-08-04T11:40:01Z</time>
      </trkpt>
      <trkpt lat="42.35368" lon="-1.56395">
        <ele>349.13</ele>
        <time>2021-08-04T11:40:06Z</time>
      </trkpt>
      <trkpt lat="42.35415" lon="-1.56295">
        <ele>345.36</ele>
        <time>2021-08-04T11:40:10Z</time>
      </trkpt>
      <trkpt lat="42.35459" lon="-1.56192">
        <ele>342.46</ele>
        <time>2021-08-04T11:40:14Z</time>
      </trkpt>
      <trkpt lat="42.35485" lon="-1.56047">
        <ele>342.37</ele>
        <time>2021-08-04T11:40:19Z</time>
      </trkpt>
      <trkpt lat="42.3552" lon="-1.5594">
        <ele>343.52</ele>
        <time>2021-08-04T11:40:23Z</time>
      </trkpt>
      <trkpt lat="42.356" lon="-1.55768">
        <ele>347.23</ele>
        <time>2021-08-04T11:40:30Z</time>
      </trkpt>
      <trkpt lat="42.3565" lon="-1.55617">
        <ele>348.83</ele>
        <time>2021-08-04T11:40:37Z</time>
      </trkpt>
      <trkpt lat="42.35692" lon="-1.55486">
        <ele>348.27</ele>
        <time>2021-08-04T11:40:46Z</time>
      </trkpt>
      <trkpt lat="42.35744" lon="-1.55327">
        <ele>347.25</ele>
        <time>2021-08-04T11:41:01Z</time>
      </trkpt>
      <trkpt lat="42.35798" lon="-1.55164">
        <ele>347.93</ele>
        <time>2021-08-04T11:41:15Z</time>
      </trkpt>
      <trkpt lat="42.35849" lon="-1.55006">
        <ele>347.67</ele>
        <time>2021-08-04T11:41:30Z</time>
      </trkpt>
      <trkpt lat="42.35893" lon="-1.54854">
        <ele>347.78</ele>
        <time>2021-08-04T11:41:44Z</time>
      </trkpt>
      <trkpt lat="42.35928" lon="-1.5475">
        <ele>348.13</ele>
        <time>2021-08-04T11:41:53Z</time>
      </trkpt>
      <trkpt lat="42.35971" lon="-1.54711">
        <ele>347.96</ele>
        <time>2021-08-04T11:41:59Z</time>
      </trkpt>
      <trkpt lat="42.36011" lon="-1.54698">
        <ele>346.95</ele>
        <time>2021-08-04T11:42:03Z</time>
      </trkpt>
      <trkpt lat="42.36051" lon="-1.54669">
        <ele>344.95</ele>
        <time>2021-08-04T11:42:07Z</time>
      </trkpt>
      <trkpt lat="42.36084" lon="-1.54622">
        <ele>341.09</ele>
        <time>2021-08-04T11:42:13Z</time>
      </trkpt>
      <trkpt lat="42.36102" lon="-1.54589">
        <ele>337.82</ele>
        <time>2021-08-04T11:42:19Z</time>
      </trkpt>
      <trkpt lat="42.36128" lon="-1.54506">
        <ele>335.3</ele>
        <time>2021-08-04T11:42:26Z</time>
      </trkpt>
      <trkpt lat="42.36162" lon="-1.54345">
        <ele>332.69</ele>
        <time>2021-08-04T11:42:33Z</time>
      </trkpt>
      <trkpt lat="42.36175" lon="-1.54292">
        <ele>332</ele>
        <time>2021-08-04T11:42:35Z</time>
      </trkpt>
      <trkpt lat="42.36247" lon="-1.54131">
        <ele>329.45</ele>
        <time>2021-08-04T11:42:42Z</time>
      </trkpt>
      <trkpt lat="42.36262" lon="-1.54027">
        <ele>328.15</ele>
        <time>2021-08-04T11:42:46Z</time>
      </trkpt>
      <trkpt lat="42.36247" lon="-1.53683">
        <ele>326.27</ele>
        <time>2021-08-04T11:43:00Z</time>
      </trkpt>
      <trkpt lat="42.36246" lon="-1.53321">
        <ele>327.6</ele>
        <time>2021-08-04T11:43:14Z</time>
      </trkpt>
      <trkpt lat="42.36271" lon="-1.52903">
        <ele>328.67</ele>
        <time>2021-08-04T11:43:29Z</time>
      </trkpt>
      <trkpt lat="42.36314" lon="-1.52593">
        <ele>329.34</ele>
        <time>2021-08-04T11:43:40Z</time>
      </trkpt>
      <trkpt lat="42.36398" lon="-1.52257">
        <ele>329.4</ele>
        <time>2021-08-04T11:43:53Z</time>
      </trkpt>
      <trkpt lat="42.36448" lon="-1.51882">
        <ele>329.85</ele>
        <time>2021-08-04T11:44:07Z</time>
      </trkpt>
      <trkpt lat="42.36496" lon="-1.51456">
        <ele>330.87</ele>
        <time>2021-08-04T11:44:23Z</time>
      </trkpt>
      <trkpt lat="42.36541" lon="-1.50915">
        <ele>332.25</ele>
        <time>2021-08-04T11:44:43Z</time>
      </trkpt>
      <trkpt lat="42.36593" lon="-1.50298">
        <ele>335.38</ele>
        <time>2021-08-04T11:45:05Z</time>
      </trkpt>
      <trkpt lat="42.3661" lon="-1.49822">
        <ele>338.04</ele>
        <time>2021-08-04T11:45:21Z</time>
      </trkpt>
      <trkpt lat="42.3663" lon="-1.49322">
        <ele>337.71</ele>
        <time>2021-08-04T11:45:38Z</time>
      </trkpt>
      <trkpt lat="42.36681" lon="-1.48763">
        <ele>338.61</ele>
        <time>2021-08-04T11:45:58Z</time>
      </trkpt>
      <trkpt lat="42.3675" lon="-1.48549">
        <ele>339.03</ele>
        <time>2021-08-04T11:46:07Z</time>
      </trkpt>
      <trkpt lat="42.36849" lon="-1.48248">
        <ele>341.37</ele>
        <time>2021-08-04T11:46:19Z</time>
      </trkpt>
      <trkpt lat="42.36985" lon="-1.47658">
        <ele>343.04</ele>
        <time>2021-08-04T11:46:41Z</time>
      </trkpt>
      <trkpt lat="42.37056" lon="-1.47292">
        <ele>343.08</ele>
        <time>2021-08-04T11:46:55Z</time>
      </trkpt>
      <trkpt lat="42.3705" lon="-1.47071">
        <ele>342.94</ele>
        <time>2021-08-04T11:47:04Z</time>
      </trkpt>
      <trkpt lat="42.37029" lon="-1.46802">
        <ele>343.89</ele>
        <time>2021-08-04T11:47:15Z</time>
      </trkpt>
      <trkpt lat="42.37066" lon="-1.46528">
        <ele>345.18</ele>
        <time>2021-08-04T11:47:26Z</time>
      </trkpt>
      <trkpt lat="42.37123" lon="-1.46167">
        <ele>346.45</ele>
        <time>2021-08-04T11:47:40Z</time>
      </trkpt>
      <trkpt lat="42.37176" lon="-1.45823">
        <ele>346.42</ele>
        <time>2021-08-04T11:47:54Z</time>
      </trkpt>
      <trkpt lat="42.37243" lon="-1.45674">
        <ele>346.3</ele>
        <time>2021-08-04T11:48:02Z</time>
      </trkpt>
      <trkpt lat="42.37283" lon="-1.45623">
        <ele>345.99</ele>
        <time>2021-08-04T11:48:06Z</time>
      </trkpt>
      <trkpt lat="42.37353" lon="-1.45459">
        <ele>346.1</ele>
        <time>2021-08-04T11:48:14Z</time>
      </trkpt>
      <trkpt lat="42.37499" lon="-1.45084">
        <ele>347.69</ele>
        <time>2021-08-04T11:48:29Z</time>
      </trkpt>
      <trkpt lat="42.3756" lon="-1.44924">
        <ele>347.12</ele>
        <time>2021-08-04T11:48:37Z</time>
      </trkpt>
      <trkpt lat="42.37593" lon="-1.44849">
        <ele>345.57</ele>
        <time>2021-08-04T11:48:44Z</time>
      </trkpt>
      <trkpt lat="42.37697" lon="-1.44731">
        <ele>345.35</ele>
        <time>2021-08-04T11:48:56Z</time>
      </trkpt>
      <trkpt lat="42.37774" lon="-1.44642">
        <ele>345.91</ele>
        <time>2021-08-04T11:49:05Z</time>
      </trkpt>
      <trkpt lat="42.37812" lon="-1.44616">
        <ele>346.25</ele>
        <time>2021-08-04T11:49:10Z</time>
      </trkpt>
      <trkpt lat="42.37841" lon="-1.44613">
        <ele>346.92</ele>
        <time>2021-08-04T11:49:14Z</time>
      </trkpt>
      <trkpt lat="42.37877" lon="-1.44617">
        <ele>349.72</ele>
        <time>2021-08-04T11:49:24Z</time>
      </trkpt>
      <trkpt lat="42.37875" lon="-1.44592">
        <ele>350.52</ele>
        <time>2021-08-04T11:49:30Z</time>
      </trkpt>
      <trkpt lat="42.37864" lon="-1.44565">
        <ele>351.02</ele>
        <time>2021-08-04T11:49:33Z</time>
      </trkpt>
      <trkpt lat="42.37846" lon="-1.44445">
        <ele>352.43</ele>
        <time>2021-08-04T11:49:44Z</time>
      </trkpt>
      <trkpt lat="42.37833" lon="-1.44331">
        <ele>353.97</ele>
        <time>2021-08-04T11:49:54Z</time>
      </trkpt>
      <trkpt lat="42.37813" lon="-1.44202">
        <ele>355.28</ele>
        <time>2021-08-04T11:50:04Z</time>
      </trkpt>
      <trkpt lat="42.37803" lon="-1.44146">
        <ele>356.47</ele>
        <time>2021-08-04T11:50:13Z</time>
      </trkpt>
      <trkpt lat="42.37791" lon="-1.44074">
        <ele>358.3</ele>
        <time>2021-08-04T11:50:25Z</time>
      </trkpt>
      <trkpt lat="42.37779" lon="-1.43984">
        <ele>360.48</ele>
        <time>2021-08-04T11:50:39Z</time>
      </trkpt>
      <trkpt lat="42.3778" lon="-1.4398">
        <ele>361.64</ele>
        <time>2021-08-04T11:50:47Z</time>
      </trkpt>
      <trkpt lat="42.37778" lon="-1.43969">
        <ele>362.04</ele>
        <time>2021-08-04T11:50:57Z</time>
      </trkpt>
      <trkpt lat="42.37778" lon="-1.43969">
        <ele>362.13</ele>
        <time>2021-08-04T11:51:04Z</time>
      </trkpt>
      <trkpt lat="42.37785" lon="-1.43973">
        <ele>362.25</ele>
        <time>2021-08-04T11:51:13Z</time>
      </trkpt>
      <trkpt lat="42.37785" lon="-1.44002">
        <ele>362.75</ele>
        <time>2021-08-04T11:51:18Z</time>
      </trkpt>
      <trkpt lat="42.37807" lon="-1.44144">
        <ele>362.61</ele>
        <time>2021-08-04T11:51:27Z</time>
      </trkpt>
      <trkpt lat="42.37818" lon="-1.44225">
        <ele>360.69</ele>
        <time>2021-08-04T11:51:34Z</time>
      </trkpt>
      <trkpt lat="42.37821" lon="-1.44245">
        <ele>360.01</ele>
        <time>2021-08-04T11:51:36Z</time>
      </trkpt>
      <trkpt lat="42.37821" lon="-1.44274">
        <ele>357.75</ele>
        <time>2021-08-04T11:51:43Z</time>
      </trkpt>
      <trkpt lat="42.37859" lon="-1.4428">
        <ele>356.51</ele>
        <time>2021-08-04T11:51:50Z</time>
      </trkpt>
      <trkpt lat="42.37869" lon="-1.44276">
        <ele>356.44</ele>
        <time>2021-08-04T11:51:51Z</time>
      </trkpt>
      <trkpt lat="42.3793" lon="-1.44256">
        <ele>355.65</ele>
        <time>2021-08-04T11:52:02Z</time>
      </trkpt>
      <trkpt lat="42.37938" lon="-1.44257">
        <ele>355.48</ele>
        <time>2021-08-04T11:52:12Z</time>
      </trkpt>
      <trkpt lat="42.37982" lon="-1.44244">
        <ele>355.5</ele>
        <time>2021-08-04T11:52:19Z</time>
      </trkpt>
      <trkpt lat="42.38051" lon="-1.44226">
        <ele>355.81</ele>
        <time>2021-08-04T11:52:30Z</time>
      </trkpt>
      <trkpt lat="42.38093" lon="-1.44215">
        <ele>355.09</ele>
        <time>2021-08-04T11:52:42Z</time>
      </trkpt>
      <trkpt lat="42.381" lon="-1.44214">
        <ele>354.71</ele>
        <time>2021-08-04T11:52:58Z</time>
      </trkpt>
      <trkpt lat="42.38108" lon="-1.4421">
        <ele>354.77</ele>
        <time>2021-08-04T11:53:19Z</time>
      </trkpt>
      <trkpt lat="42.38109" lon="-1.4421">
        <ele>354.36</ele>
        <time>2021-08-04T11:53:50Z</time>
      </trkpt>
      <trkpt lat="42.38123" lon="-1.4421">
        <ele>354.56</ele>
        <time>2021-08-04T11:53:55Z</time>
      </trkpt>
      <trkpt lat="42.38152" lon="-1.442">
        <ele>354.52</ele>
        <time>2021-08-04T11:54:06Z</time>
      </trkpt>
      <trkpt lat="42.38197" lon="-1.44189">
        <ele>354.32</ele>
        <time>2021-08-04T11:54:18Z</time>
      </trkpt>
      <trkpt lat="42.38209" lon="-1.44186">
        <ele>354.1</ele>
        <time>2021-08-04T11:54:27Z</time>
      </trkpt>
      <trkpt lat="42.38223" lon="-1.44157">
        <ele>353.69</ele>
        <time>2021-08-04T11:54:34Z</time>
      </trkpt>
      <trkpt lat="42.38221" lon="-1.44138">
        <ele>351.85</ele>
        <time>2021-08-04T11:54:44Z</time>
      </trkpt>
      <trkpt lat="42.3822" lon="-1.44111">
        <ele>350.75</ele>
        <time>2021-08-04T11:55:06Z</time>
      </trkpt>
      <trkpt lat="42.382" lon="-1.43975">
        <ele>347.67</ele>
        <time>2021-08-04T11:55:18Z</time>
      </trkpt>
      <trkpt lat="42.38178" lon="-1.43819">
        <ele>345.31</ele>
        <time>2021-08-04T11:55:30Z</time>
      </trkpt>
      <trkpt lat="42.38172" lon="-1.43769">
        <ele>345.37</ele>
        <time>2021-08-04T11:55:33Z</time>
      </trkpt>
      <trkpt lat="42.38175" lon="-1.43697">
        <ele>345.77</ele>
        <time>2021-08-04T11:55:37Z</time>
      </trkpt>
      <trkpt lat="42.38227" lon="-1.43438">
        <ele>347.52</ele>
        <time>2021-08-04T11:55:51Z</time>
      </trkpt>
      <trkpt lat="42.38275" lon="-1.43197">
        <ele>350.22</ele>
        <time>2021-08-04T11:56:05Z</time>
      </trkpt>
      <trkpt lat="42.38323" lon="-1.42995">
        <ele>350.11</ele>
        <time>2021-08-04T11:56:16Z</time>
      </trkpt>
      <trkpt lat="42.3838" lon="-1.42793">
        <ele>351.18</ele>
        <time>2021-08-04T11:56:27Z</time>
      </trkpt>
      <trkpt lat="42.38409" lon="-1.42591">
        <ele>352.66</ele>
        <time>2021-08-04T11:56:36Z</time>
      </trkpt>
      <trkpt lat="42.38467" lon="-1.42454">
        <ele>355.18</ele>
        <time>2021-08-04T11:56:43Z</time>
      </trkpt>
      <trkpt lat="42.38544" lon="-1.42268">
        <ele>356.78</ele>
        <time>2021-08-04T11:56:52Z</time>
      </trkpt>
      <trkpt lat="42.38581" lon="-1.42214">
        <ele>357.14</ele>
        <time>2021-08-04T11:56:56Z</time>
      </trkpt>
      <trkpt lat="42.38646" lon="-1.42168">
        <ele>355.93</ele>
        <time>2021-08-04T11:57:01Z</time>
      </trkpt>
      <trkpt lat="42.38687" lon="-1.42092">
        <ele>353.04</ele>
        <time>2021-08-04T11:57:06Z</time>
      </trkpt>
      <trkpt lat="42.38706" lon="-1.41997">
        <ele>351.36</ele>
        <time>2021-08-04T11:57:11Z</time>
      </trkpt>
      <trkpt lat="42.38766" lon="-1.41883">
        <ele>351.54</ele>
        <time>2021-08-04T11:57:18Z</time>
      </trkpt>
      <trkpt lat="42.38883" lon="-1.41731">
        <ele>351.58</ele>
        <time>2021-08-04T11:57:28Z</time>
      </trkpt>
      <trkpt lat="42.38924" lon="-1.4167">
        <ele>349.42</ele>
        <time>2021-08-04T11:57:34Z</time>
      </trkpt>
      <trkpt lat="42.38958" lon="-1.41615">
        <ele>346.94</ele>
        <time>2021-08-04T11:57:43Z</time>
      </trkpt>
      <trkpt lat="42.38992" lon="-1.41565">
        <ele>346.64</ele>
        <time>2021-08-04T11:57:51Z</time>
      </trkpt>
      <trkpt lat="42.39021" lon="-1.4154">
        <ele>346.45</ele>
        <time>2021-08-04T11:57:57Z</time>
      </trkpt>
      <trkpt lat="42.3904" lon="-1.41519">
        <ele>346.32</ele>
        <time>2021-08-04T11:58:00Z</time>
      </trkpt>
      <trkpt lat="42.3912" lon="-1.41478">
        <ele>346.67</ele>
        <time>2021-08-04T11:58:09Z</time>
      </trkpt>
      <trkpt lat="42.39152" lon="-1.41463">
        <ele>346.74</ele>
        <time>2021-08-04T11:58:12Z</time>
      </trkpt>
      <trkpt lat="42.39264" lon="-1.4146">
        <ele>347.48</ele>
        <time>2021-08-04T11:58:21Z</time>
      </trkpt>
      <trkpt lat="42.39334" lon="-1.41463">
        <ele>347.61</ele>
        <time>2021-08-04T11:58:27Z</time>
      </trkpt>
      <trkpt lat="42.39444" lon="-1.41493">
        <ele>347.54</ele>
        <time>2021-08-04T11:58:37Z</time>
      </trkpt>
      <trkpt lat="42.39539" lon="-1.41527">
        <ele>347.89</ele>
        <time>2021-08-04T11:58:46Z</time>
      </trkpt>
      <trkpt lat="42.3962" lon="-1.41616">
        <ele>348.45</ele>
        <time>2021-08-04T11:58:57Z</time>
      </trkpt>
      <trkpt lat="42.39651" lon="-1.41661">
        <ele>348.5</ele>
        <time>2021-08-04T11:59:01Z</time>
      </trkpt>
      <trkpt lat="42.39723" lon="-1.41727">
        <ele>348.7</ele>
        <time>2021-08-04T11:59:10Z</time>
      </trkpt>
      <trkpt lat="42.39746" lon="-1.4176">
        <ele>348.47</ele>
        <time>2021-08-04T11:59:17Z</time>
      </trkpt>
      <trkpt lat="42.39739" lon="-1.41795">
        <ele>347.41</ele>
        <time>2021-08-04T11:59:26Z</time>
      </trkpt>
      <trkpt lat="42.39739" lon="-1.41799">
        <ele>347.02</ele>
        <time>2021-08-04T11:59:28Z</time>
      </trkpt>
      <trkpt lat="42.3974" lon="-1.41805">
        <ele>345.8</ele>
        <time>2021-08-04T11:59:44Z</time>
      </trkpt>
      <trkpt lat="42.39735" lon="-1.41814">
        <ele>345.8</ele>
        <time>2021-08-04T11:59:49Z</time>
      </trkpt>
      <trkpt lat="42.39707" lon="-1.41849">
        <ele>344.18</ele>
        <time>2021-08-04T12:00:01Z</time>
      </trkpt>
      <trkpt lat="42.39698" lon="-1.41855">
        <ele>343.46</ele>
        <time>2021-08-04T12:00:06Z</time>
      </trkpt>
      <trkpt lat="42.397" lon="-1.41863">
        <ele>343.14</ele>
        <time>2021-08-04T12:00:10Z</time>
      </trkpt>
      <trkpt lat="42.39701" lon="-1.41863">
        <ele>343.27</ele>
        <time>2021-08-04T12:00:32Z</time>
      </trkpt>
      <trkpt lat="42.39701" lon="-1.41863">
        <ele>343.59</ele>
        <time>2021-08-04T12:00:50Z</time>
      </trkpt>
      <trkpt lat="42.39719" lon="-1.41876">
        <ele>343.49</ele>
        <time>2021-08-04T12:02:13Z</time>
      </trkpt>
      <trkpt lat="42.39709" lon="-1.41855">
        <ele>343.49</ele>
        <time>2021-08-04T12:02:36Z</time>
      </trkpt>
      <trkpt lat="42.39708" lon="-1.41858">
        <ele>343.49</ele>
        <time>2021-08-04T12:03:20Z</time>
      </trkpt>
      <trkpt lat="42.39708" lon="-1.41859">
        <ele>343.49</ele>
        <time>2021-08-04T12:03:50Z</time>
      </trkpt>
      <trkpt lat="42.39707" lon="-1.41861">
        <ele>343.49</ele>
        <time>2021-08-04T12:04:33Z</time>
      </trkpt>
      <trkpt lat="42.39707" lon="-1.41863">
        <ele>343.49</ele>
        <time>2021-08-04T12:05:08Z</time>
      </trkpt>
      <trkpt lat="42.39707" lon="-1.41863">
        <ele>343.49</ele>
        <time>2021-08-04T12:05:51Z</time>
      </trkpt>
      <trkpt lat="42.39705" lon="-1.41865">
        <ele>343.49</ele>
        <time>2021-08-04T12:06:47Z</time>
      </trkpt>
      <trkpt lat="42.39705" lon="-1.41865">
        <ele>343.49</ele>
        <time>2021-08-04T12:07:25Z</time>
      </trkpt>
      <trkpt lat="42.39706" lon="-1.41866">
        <ele>343.49</ele>
        <time>2021-08-04T12:08:10Z</time>
      </trkpt>
      <trkpt lat="42.39706" lon="-1.41868">
        <ele>343.49</ele>
        <time>2021-08-04T12:08:49Z</time>
      </trkpt>
      <trkpt lat="42.39706" lon="-1.41868">
        <ele>343.49</ele>
        <time>2021-08-04T12:09:24Z</time>
      </trkpt>
      <trkpt lat="42.39707" lon="-1.41868">
        <ele>343.49</ele>
        <time>2021-08-04T12:10:11Z</time>
      </trkpt>
      <trkpt lat="42.39707" lon="-1.4187">
        <ele>343.49</ele>
        <time>2021-08-04T12:10:49Z</time>
      </trkpt>
      <trkpt lat="42.39707" lon="-1.41872">
        <ele>343.49</ele>
        <time>2021-08-04T12:11:25Z</time>
      </trkpt>
      <trkpt lat="42.39708" lon="-1.4187">
        <ele>343.49</ele>
        <time>2021-08-04T12:12:03Z</time>
      </trkpt>
      <trkpt lat="42.39708" lon="-1.4187">
        <ele>343.49</ele>
        <time>2021-08-04T12:12:39Z</time>
      </trkpt>
      <trkpt lat="42.39708" lon="-1.4187">
        <ele>343.49</ele>
        <time>2021-08-04T12:13:56Z</time>
      </trkpt>
      <trkpt lat="42.39709" lon="-1.41869">
        <ele>343.49</ele>
        <time>2021-08-04T12:15:03Z</time>
      </trkpt>
      <trkpt lat="42.39708" lon="-1.4187">
        <ele>343.49</ele>
        <time>2021-08-04T12:16:03Z</time>
      </trkpt>
      <trkpt lat="42.39708" lon="-1.4187">
        <ele>343.49</ele>
        <time>2021-08-04T12:17:31Z</time>
      </trkpt>
      <trkpt lat="42.39708" lon="-1.41869">
        <ele>343.49</ele>
        <time>2021-08-04T12:18:36Z</time>
      </trkpt>
      <trkpt lat="42.39707" lon="-1.41869">
        <ele>343.49</ele>
        <time>2021-08-04T12:19:27Z</time>
      </trkpt>
      <trkpt lat="42.39707" lon="-1.41868">
        <ele>343.49</ele>
        <time>2021-08-04T12:20:21Z</time>
      </trkpt>
      <trkpt lat="42.39706" lon="-1.41868">
        <ele>343.49</ele>
        <time>2021-08-04T12:22:03Z</time>
      </trkpt>
      <trkpt lat="42.39706" lon="-1.41866">
        <ele>343.49</ele>
        <time>2021-08-04T12:23:02Z</time>
      </trkpt>
      <trkpt lat="42.39701" lon="-1.4187">
        <ele>343.49</ele>
        <time>2021-08-04T12:23:32Z</time>
      </trkpt>
      <trkpt lat="42.39703" lon="-1.41866">
        <ele>343.49</ele>
        <time>2021-08-04T12:24:15Z</time>
      </trkpt>
      <trkpt lat="42.39703" lon="-1.41867">
        <ele>343.49</ele>
        <time>2021-08-04T12:25:15Z</time>
      </trkpt>
      <trkpt lat="42.39703" lon="-1.41867">
        <ele>343.49</ele>
        <time>2021-08-04T12:25:58Z</time>
      </trkpt>
      <trkpt lat="42.39704" lon="-1.41868">
        <ele>343.49</ele>
        <time>2021-08-04T12:26:40Z</time>
      </trkpt>
      <trkpt lat="42.39703" lon="-1.41868">
        <ele>343.49</ele>
        <time>2021-08-04T12:27:13Z</time>
      </trkpt>
      <trkpt lat="42.39703" lon="-1.41868">
        <ele>343.49</ele>
        <time>2021-08-04T12:28:39Z</time>
      </trkpt>
      <trkpt lat="42.39703" lon="-1.41869">
        <ele>343.49</ele>
        <time>2021-08-04T12:29:21Z</time>
      </trkpt>
      <trkpt lat="42.39704" lon="-1.41867">
        <ele>343.49</ele>
        <time>2021-08-04T12:30:03Z</time>
      </trkpt>
      <trkpt lat="42.39704" lon="-1.41867">
        <ele>343.49</ele>
        <time>2021-08-04T12:30:44Z</time>
      </trkpt>
      <trkpt lat="42.39705" lon="-1.41868">
        <ele>343.49</ele>
        <time>2021-08-04T12:31:29Z</time>
      </trkpt>
      <trkpt lat="42.39705" lon="-1.41867">
        <ele>343.49</ele>
        <time>2021-08-04T12:33:06Z</time>
      </trkpt>
      <trkpt lat="42.39707" lon="-1.41866">
        <ele>343.49</ele>
        <time>2021-08-04T12:33:52Z</time>
      </trkpt>
      <trkpt lat="42.39707" lon="-1.41866">
        <ele>343.49</ele>
        <time>2021-08-04T12:35:03Z</time>
      </trkpt>
      <trkpt lat="42.39707" lon="-1.41866">
        <ele>343.49</ele>
        <time>2021-08-04T12:35:45Z</time>
      </trkpt>
      <trkpt lat="42.39707" lon="-1.41866">
        <ele>343.49</ele>
        <time>2021-08-04T12:36:51Z</time>
      </trkpt>
      <trkpt lat="42.39708" lon="-1.41866">
        <ele>343.49</ele>
        <time>2021-08-04T12:37:38Z</time>
      </trkpt>
      <trkpt lat="42.39709" lon="-1.41866">
        <ele>343.49</ele>
        <time>2021-08-04T12:38:19Z</time>
      </trkpt>
      <trkpt lat="42.39709" lon="-1.41868">
        <ele>343.49</ele>
        <time>2021-08-04T12:38:56Z</time>
      </trkpt>
      <trkpt lat="42.39709" lon="-1.41868">
        <ele>343.49</ele>
        <time>2021-08-04T12:39:34Z</time>
      </trkpt>
      <trkpt lat="42.39709" lon="-1.41868">
        <ele>343.49</ele>
        <time>2021-08-04T12:40:14Z</time>
      </trkpt>
      <trkpt lat="42.39709" lon="-1.41869">
        <ele>343.49</ele>
        <time>2021-08-04T12:40:55Z</time>
      </trkpt>
      <trkpt lat="42.39707" lon="-1.41869">
        <ele>343.49</ele>
        <time>2021-08-04T12:41:57Z</time>
      </trkpt>
      <trkpt lat="42.39707" lon="-1.41867">
        <ele>343.49</ele>
        <time>2021-08-04T12:42:36Z</time>
      </trkpt>
      <trkpt lat="42.39707" lon="-1.41868">
        <ele>343.49</ele>
        <time>2021-08-04T12:43:13Z</time>
      </trkpt>
      <trkpt lat="42.39707" lon="-1.41868">
        <ele>343.49</ele>
        <time>2021-08-04T12:43:47Z</time>
      </trkpt>
      <trkpt lat="42.39708" lon="-1.41867">
        <ele>343.49</ele>
        <time>2021-08-04T12:44:20Z</time>
      </trkpt>
      <trkpt lat="42.39708" lon="-1.41867">
        <ele>343.49</ele>
        <time>2021-08-04T12:44:51Z</time>
      </trkpt>
      <trkpt lat="42.39709" lon="-1.41866">
        <ele>343.49</ele>
        <time>2021-08-04T12:45:32Z</time>
      </trkpt>
      <trkpt lat="42.39709" lon="-1.41867">
        <ele>343.49</ele>
        <time>2021-08-04T12:46:08Z</time>
      </trkpt>
      <trkpt lat="42.39709" lon="-1.41867">
        <ele>343.49</ele>
        <time>2021-08-04T12:46:56Z</time>
      </trkpt>
      <trkpt lat="42.39709" lon="-1.41867">
        <ele>343.49</ele>
        <time>2021-08-04T12:47:43Z</time>
      </trkpt>
      <trkpt lat="42.39709" lon="-1.41868">
        <ele>343.49</ele>
        <time>2021-08-04T12:48:20Z</time>
      </trkpt>
      <trkpt lat="42.39709" lon="-1.41868">
        <ele>343.49</ele>
        <time>2021-08-04T12:49:07Z</time>
      </trkpt>
      <trkpt lat="42.39709" lon="-1.41868">
        <ele>343.49</ele>
        <time>2021-08-04T12:49:41Z</time>
      </trkpt>
      <trkpt lat="42.39709" lon="-1.41868">
        <ele>343.49</ele>
        <time>2021-08-04T12:50:22Z</time>
      </trkpt>
      <trkpt lat="42.39708" lon="-1.41867">
        <ele>343.49</ele>
        <time>2021-08-04T12:50:58Z</time>
      </trkpt>
      <trkpt lat="42.39707" lon="-1.41869">
        <ele>343.49</ele>
        <time>2021-08-04T12:51:35Z</time>
      </trkpt>
      <trkpt lat="42.39707" lon="-1.4187">
        <ele>343.49</ele>
        <time>2021-08-04T12:52:22Z</time>
      </trkpt>
      <trkpt lat="42.39706" lon="-1.41869">
        <ele>343.49</ele>
        <time>2021-08-04T12:53:07Z</time>
      </trkpt>
      <trkpt lat="42.39706" lon="-1.41872">
        <ele>343.49</ele>
        <time>2021-08-04T12:54:00Z</time>
      </trkpt>
      <trkpt lat="42.39706" lon="-1.4187">
        <ele>343.49</ele>
        <time>2021-08-04T12:54:59Z</time>
      </trkpt>
      <trkpt lat="42.39706" lon="-1.4187">
        <ele>343.49</ele>
        <time>2021-08-04T12:55:43Z</time>
      </trkpt>
      <trkpt lat="42.39706" lon="-1.41871">
        <ele>343.49</ele>
        <time>2021-08-04T12:56:29Z</time>
      </trkpt>
      <trkpt lat="42.39707" lon="-1.41872">
        <ele>343.49</ele>
        <time>2021-08-04T12:57:02Z</time>
      </trkpt>
      <trkpt lat="42.39706" lon="-1.41871">
        <ele>343.49</ele>
        <time>2021-08-04T12:57:57Z</time>
      </trkpt>
      <trkpt lat="42.39706" lon="-1.4187">
        <ele>343.49</ele>
        <time>2021-08-04T12:58:34Z</time>
      </trkpt>
      <trkpt lat="42.39707" lon="-1.4187">
        <ele>343.49</ele>
        <time>2021-08-04T12:59:15Z</time>
      </trkpt>
      <trkpt lat="42.39707" lon="-1.4187">
        <ele>343.49</ele>
        <time>2021-08-04T12:59:56Z</time>
      </trkpt>
      <trkpt lat="42.39708" lon="-1.41871">
        <ele>343.49</ele>
        <time>2021-08-04T13:00:32Z</time>
      </trkpt>
      <trkpt lat="42.39708" lon="-1.41871">
        <ele>343.49</ele>
        <time>2021-08-04T13:00:59Z</time>
      </trkpt>
      <trkpt lat="42.39708" lon="-1.41872">
        <ele>343.49</ele>
        <time>2021-08-04T13:01:39Z</time>
      </trkpt>
      <trkpt lat="42.39708" lon="-1.41872">
        <ele>343.49</ele>
        <time>2021-08-04T13:02:14Z</time>
      </trkpt>
      <trkpt lat="42.39708" lon="-1.41872">
        <ele>343.49</ele>
        <time>2021-08-04T13:02:44Z</time>
      </trkpt>
      <trkpt lat="42.39708" lon="-1.41871">
        <ele>343.49</ele>
        <time>2021-08-04T13:03:29Z</time>
      </trkpt>
      <trkpt lat="42.39708" lon="-1.41871">
        <ele>343.49</ele>
        <time>2021-08-04T13:04:12Z</time>
      </trkpt>
      <trkpt lat="42.39708" lon="-1.41869">
        <ele>343.49</ele>
        <time>2021-08-04T13:04:43Z</time>
      </trkpt>
      <trkpt lat="42.39707" lon="-1.41865">
        <ele>343.49</ele>
        <time>2021-08-04T13:05:14Z</time>
      </trkpt>
      <trkpt lat="42.39707" lon="-1.41864">
        <ele>343.49</ele>
        <time>2021-08-04T13:05:49Z</time>
      </trkpt>
      <trkpt lat="42.39707" lon="-1.41865">
        <ele>343.49</ele>
        <time>2021-08-04T13:06:23Z</time>
      </trkpt>
      <trkpt lat="42.39707" lon="-1.41864">
        <ele>343.49</ele>
        <time>2021-08-04T13:07:00Z</time>
      </trkpt>
      <trkpt lat="42.39707" lon="-1.41865">
        <ele>343.49</ele>
        <time>2021-08-04T13:07:39Z</time>
      </trkpt>
      <trkpt lat="42.39708" lon="-1.41864">
        <ele>343.49</ele>
        <time>2021-08-04T13:08:13Z</time>
      </trkpt>
      <trkpt lat="42.39708" lon="-1.41866">
        <ele>343.49</ele>
        <time>2021-08-04T13:08:47Z</time>
      </trkpt>
      <trkpt lat="42.39708" lon="-1.41867">
        <ele>343.49</ele>
        <time>2021-08-04T13:09:29Z</time>
      </trkpt>
      <trkpt lat="42.39709" lon="-1.41867">
        <ele>343.49</ele>
        <time>2021-08-04T13:10:14Z</time>
      </trkpt>
      <trkpt lat="42.39709" lon="-1.41867">
        <ele>343.49</ele>
        <time>2021-08-04T13:10:46Z</time>
      </trkpt>
      <trkpt lat="42.39708" lon="-1.41867">
        <ele>343.49</ele>
        <time>2021-08-04T13:11:22Z</time>
      </trkpt>
      <trkpt lat="42.39709" lon="-1.41865">
        <ele>343.49</ele>
        <time>2021-08-04T13:11:54Z</time>
      </trkpt>
      <trkpt lat="42.39707" lon="-1.41867">
        <ele>343.49</ele>
        <time>2021-08-04T13:12:22Z</time>
      </trkpt>
      <trkpt lat="42.39707" lon="-1.41866">
        <ele>343.49</ele>
        <time>2021-08-04T13:12:57Z</time>
      </trkpt>
      <trkpt lat="42.39707" lon="-1.41864">
        <ele>343.49</ele>
        <time>2021-08-04T13:13:36Z</time>
      </trkpt>
      <trkpt lat="42.39707" lon="-1.41865">
        <ele>343.49</ele>
        <time>2021-08-04T13:14:27Z</time>
      </trkpt>
      <trkpt lat="42.39707" lon="-1.41866">
        <ele>343.49</ele>
        <time>2021-08-04T13:15:09Z</time>
      </trkpt>
      <trkpt lat="42.39708" lon="-1.41864">
        <ele>343.49</ele>
        <time>2021-08-04T13:15:44Z</time>
      </trkpt>
      <trkpt lat="42.39708" lon="-1.41864">
        <ele>343.49</ele>
        <time>2021-08-04T13:16:22Z</time>
      </trkpt>
      <trkpt lat="42.39707" lon="-1.41865">
        <ele>343.49</ele>
        <time>2021-08-04T13:16:52Z</time>
      </trkpt>
      <trkpt lat="42.39707" lon="-1.41865">
        <ele>343.49</ele>
        <time>2021-08-04T13:17:39Z</time>
      </trkpt>
      <trkpt lat="42.39706" lon="-1.41866">
        <ele>343.49</ele>
        <time>2021-08-04T13:18:16Z</time>
      </trkpt>
      <trkpt lat="42.39708" lon="-1.41864">
        <ele>343.49</ele>
        <time>2021-08-04T13:18:49Z</time>
      </trkpt>
      <trkpt lat="42.39708" lon="-1.41868">
        <ele>343.49</ele>
        <time>2021-08-04T13:19:24Z</time>
      </trkpt>
      <trkpt lat="42.39708" lon="-1.41871">
        <ele>343.49</ele>
        <time>2021-08-04T13:19:58Z</time>
      </trkpt>
      <trkpt lat="42.39707" lon="-1.41871">
        <ele>343.49</ele>
        <time>2021-08-04T13:20:32Z</time>
      </trkpt>
      <trkpt lat="42.39707" lon="-1.41871">
        <ele>343.49</ele>
        <time>2021-08-04T13:21:03Z</time>
      </trkpt>
      <trkpt lat="42.39706" lon="-1.41872">
        <ele>343.49</ele>
        <time>2021-08-04T13:21:36Z</time>
      </trkpt>
      <trkpt lat="42.39705" lon="-1.41872">
        <ele>343.49</ele>
        <time>2021-08-04T13:22:12Z</time>
      </trkpt>
      <trkpt lat="42.39706" lon="-1.41873">
        <ele>343.49</ele>
        <time>2021-08-04T13:22:40Z</time>
      </trkpt>
      <trkpt lat="42.39705" lon="-1.41875">
        <ele>343.49</ele>
        <time>2021-08-04T13:23:12Z</time>
      </trkpt>
      <trkpt lat="42.39706" lon="-1.41876">
        <ele>343.49</ele>
        <time>2021-08-04T13:24:05Z</time>
      </trkpt>
      <trkpt lat="42.39707" lon="-1.41874">
        <ele>343.49</ele>
        <time>2021-08-04T13:24:46Z</time>
      </trkpt>
      <trkpt lat="42.39707" lon="-1.41874">
        <ele>343.49</ele>
        <time>2021-08-04T13:25:24Z</time>
      </trkpt>
      <trkpt lat="42.39706" lon="-1.41874">
        <ele>343.49</ele>
        <time>2021-08-04T13:26:04Z</time>
      </trkpt>
      <trkpt lat="42.39707" lon="-1.41876">
        <ele>343.49</ele>
        <time>2021-08-04T13:26:45Z</time>
      </trkpt>
      <trkpt lat="42.39707" lon="-1.41876">
        <ele>343.49</ele>
        <time>2021-08-04T13:27:14Z</time>
      </trkpt>
      <trkpt lat="42.39708" lon="-1.41875">
        <ele>343.49</ele>
        <time>2021-08-04T13:27:47Z</time>
      </trkpt>
      <trkpt lat="42.39708" lon="-1.41875">
        <ele>343.49</ele>
        <time>2021-08-04T13:28:39Z</time>
      </trkpt>
      <trkpt lat="42.39708" lon="-1.41877">
        <ele>343.49</ele>
        <time>2021-08-04T13:29:11Z</time>
      </trkpt>
      <trkpt lat="42.39707" lon="-1.41876">
        <ele>343.49</ele>
        <time>2021-08-04T13:29:47Z</time>
      </trkpt>
      <trkpt lat="42.39707" lon="-1.41877">
        <ele>343.49</ele>
        <time>2021-08-04T13:30:22Z</time>
      </trkpt>
      <trkpt lat="42.39707" lon="-1.41876">
        <ele>343.49</ele>
        <time>2021-08-04T13:31:10Z</time>
      </trkpt>
      <trkpt lat="42.39706" lon="-1.41878">
        <ele>343.49</ele>
        <time>2021-08-04T13:31:48Z</time>
      </trkpt>
      <trkpt lat="42.39706" lon="-1.41876">
        <ele>343.49</ele>
        <time>2021-08-04T13:32:22Z</time>
      </trkpt>
      <trkpt lat="42.39705" lon="-1.41873">
        <ele>343.49</ele>
        <time>2021-08-04T13:32:56Z</time>
      </trkpt>
      <trkpt lat="42.39705" lon="-1.41872">
        <ele>343.49</ele>
        <time>2021-08-04T13:33:29Z</time>
      </trkpt>
      <trkpt lat="42.39705" lon="-1.41871">
        <ele>343.49</ele>
        <time>2021-08-04T13:34:10Z</time>
      </trkpt>
      <trkpt lat="42.39706" lon="-1.41871">
        <ele>343.49</ele>
        <time>2021-08-04T13:34:46Z</time>
      </trkpt>
      <trkpt lat="42.39707" lon="-1.41871">
        <ele>343.49</ele>
        <time>2021-08-04T13:35:17Z</time>
      </trkpt>
      <trkpt lat="42.39706" lon="-1.41871">
        <ele>343.49</ele>
        <time>2021-08-04T13:35:50Z</time>
      </trkpt>
      <trkpt lat="42.39706" lon="-1.41871">
        <ele>343.49</ele>
        <time>2021-08-04T13:36:22Z</time>
      </trkpt>
      <trkpt lat="42.39704" lon="-1.41873">
        <ele>343.49</ele>
        <time>2021-08-04T13:36:53Z</time>
      </trkpt>
      <trkpt lat="42.39704" lon="-1.41872">
        <ele>343.49</ele>
        <time>2021-08-04T13:37:21Z</time>
      </trkpt>
      <trkpt lat="42.39704" lon="-1.41872">
        <ele>343.49</ele>
        <time>2021-08-04T13:37:56Z</time>
      </trkpt>
      <trkpt lat="42.39704" lon="-1.4187">
        <ele>343.49</ele>
        <time>2021-08-04T13:38:51Z</time>
      </trkpt>
      <trkpt lat="42.39705" lon="-1.4187">
        <ele>343.49</ele>
        <time>2021-08-04T13:39:22Z</time>
      </trkpt>
      <trkpt lat="42.39705" lon="-1.41871">
        <ele>343.49</ele>
        <time>2021-08-04T13:40:00Z</time>
      </trkpt>
      <trkpt lat="42.39706" lon="-1.4187">
        <ele>343.49</ele>
        <time>2021-08-04T13:40:35Z</time>
      </trkpt>
      <trkpt lat="42.39705" lon="-1.41871">
        <ele>343.49</ele>
        <time>2021-08-04T13:41:11Z</time>
      </trkpt>
      <trkpt lat="42.39705" lon="-1.4187">
        <ele>343.49</ele>
        <time>2021-08-04T13:41:44Z</time>
      </trkpt>
      <trkpt lat="42.39706" lon="-1.41871">
        <ele>343.49</ele>
        <time>2021-08-04T13:42:16Z</time>
      </trkpt>
      <trkpt lat="42.39707" lon="-1.41871">
        <ele>343.49</ele>
        <time>2021-08-04T13:42:56Z</time>
      </trkpt>
      <trkpt lat="42.39707" lon="-1.41871">
        <ele>343.49</ele>
        <time>2021-08-04T13:43:30Z</time>
      </trkpt>
      <trkpt lat="42.39707" lon="-1.4187">
        <ele>343.49</ele>
        <time>2021-08-04T13:44:00Z</time>
      </trkpt>
      <trkpt lat="42.39708" lon="-1.41869">
        <ele>343.49</ele>
        <time>2021-08-04T13:44:30Z</time>
      </trkpt>
      <trkpt lat="42.39708" lon="-1.4187">
        <ele>343.49</ele>
        <time>2021-08-04T13:45:02Z</time>
      </trkpt>
      <trkpt lat="42.39708" lon="-1.41871">
        <ele>343.49</ele>
        <time>2021-08-04T13:45:36Z</time>
      </trkpt>
      <trkpt lat="42.39708" lon="-1.41872">
        <ele>343.49</ele>
        <time>2021-08-04T13:46:10Z</time>
      </trkpt>
      <trkpt lat="42.39708" lon="-1.41872">
        <ele>343.49</ele>
        <time>2021-08-04T13:46:41Z</time>
      </trkpt>
      <trkpt lat="42.39708" lon="-1.41873">
        <ele>343.49</ele>
        <time>2021-08-04T13:47:11Z</time>
      </trkpt>
      <trkpt lat="42.39708" lon="-1.41872">
        <ele>343.49</ele>
        <time>2021-08-04T13:47:52Z</time>
      </trkpt>
      <trkpt lat="42.39707" lon="-1.41871">
        <ele>343.49</ele>
        <time>2021-08-04T13:48:28Z</time>
      </trkpt>
      <trkpt lat="42.39707" lon="-1.41871">
        <ele>343.49</ele>
        <time>2021-08-04T13:48:56Z</time>
      </trkpt>
      <trkpt lat="42.39707" lon="-1.41871">
        <ele>343.49</ele>
        <time>2021-08-04T13:49:28Z</time>
      </trkpt>
      <trkpt lat="42.39707" lon="-1.41872">
        <ele>343.49</ele>
        <time>2021-08-04T13:49:59Z</time>
      </trkpt>
      <trkpt lat="42.39707" lon="-1.41872">
        <ele>343.49</ele>
        <time>2021-08-04T13:50:41Z</time>
      </trkpt>
      <trkpt lat="42.39708" lon="-1.41872">
        <ele>343.49</ele>
        <time>2021-08-04T13:51:10Z</time>
      </trkpt>
      <trkpt lat="42.39708" lon="-1.41872">
        <ele>343.49</ele>
        <time>2021-08-04T13:51:41Z</time>
      </trkpt>
      <trkpt lat="42.39707" lon="-1.41871">
        <ele>343.49</ele>
        <time>2021-08-04T13:52:19Z</time>
      </trkpt>
      <trkpt lat="42.39708" lon="-1.4187">
        <ele>343.49</ele>
        <time>2021-08-04T13:52:52Z</time>
      </trkpt>
      <trkpt lat="42.39708" lon="-1.4187">
        <ele>343.49</ele>
        <time>2021-08-04T13:53:28Z</time>
      </trkpt>
      <trkpt lat="42.39707" lon="-1.4187">
        <ele>343.49</ele>
        <time>2021-08-04T13:54:01Z</time>
      </trkpt>
      <trkpt lat="42.39707" lon="-1.4187">
        <ele>343.49</ele>
        <time>2021-08-04T13:54:41Z</time>
      </trkpt>
      <trkpt lat="42.39705" lon="-1.41869">
        <ele>343.49</ele>
        <time>2021-08-04T13:55:21Z</time>
      </trkpt>
      <trkpt lat="42.39705" lon="-1.41868">
        <ele>343.49</ele>
        <time>2021-08-04T13:56:06Z</time>
      </trkpt>
      <trkpt lat="42.39706" lon="-1.41869">
        <ele>343.49</ele>
        <time>2021-08-04T13:56:43Z</time>
      </trkpt>
      <trkpt lat="42.39706" lon="-1.41869">
        <ele>343.49</ele>
        <time>2021-08-04T13:57:16Z</time>
      </trkpt>
      <trkpt lat="42.39707" lon="-1.41869">
        <ele>343.49</ele>
        <time>2021-08-04T13:57:50Z</time>
      </trkpt>
      <trkpt lat="42.39707" lon="-1.4187">
        <ele>343.49</ele>
        <time>2021-08-04T13:58:19Z</time>
      </trkpt>
      <trkpt lat="42.39707" lon="-1.4187">
        <ele>343.49</ele>
        <time>2021-08-04T13:58:45Z</time>
      </trkpt>
      <trkpt lat="42.39707" lon="-1.4187">
        <ele>343.49</ele>
        <time>2021-08-04T13:59:23Z</time>
      </trkpt>
      <trkpt lat="42.39707" lon="-1.4187">
        <ele>343.49</ele>
        <time>2021-08-04T14:00:06Z</time>
      </trkpt>
      <trkpt lat="42.39707" lon="-1.41867">
        <ele>343.49</ele>
        <time>2021-08-04T14:00:38Z</time>
      </trkpt>
      <trkpt lat="42.39705" lon="-1.41867">
        <ele>343.49</ele>
        <time>2021-08-04T14:01:20Z</time>
      </trkpt>
      <trkpt lat="42.39704" lon="-1.41867">
        <ele>343.49</ele>
        <time>2021-08-04T14:02:08Z</time>
      </trkpt>
      <trkpt lat="42.39705" lon="-1.41868">
        <ele>343.49</ele>
        <time>2021-08-04T14:02:55Z</time>
      </trkpt>
      <trkpt lat="42.39705" lon="-1.41867">
        <ele>343.49</ele>
        <time>2021-08-04T14:03:36Z</time>
      </trkpt>
      <trkpt lat="42.39708" lon="-1.41865">
        <ele>343.49</ele>
        <time>2021-08-04T14:04:34Z</time>
      </trkpt>
      <trkpt lat="42.39707" lon="-1.41866">
        <ele>343.49</ele>
        <time>2021-08-04T14:05:10Z</time>
      </trkpt>
      <trkpt lat="42.39708" lon="-1.41866">
        <ele>343.49</ele>
        <time>2021-08-04T14:05:52Z</time>
      </trkpt>
      <trkpt lat="42.39709" lon="-1.41867">
        <ele>343.49</ele>
        <time>2021-08-04T14:06:37Z</time>
      </trkpt>
      <trkpt lat="42.39709" lon="-1.41866">
        <ele>343.49</ele>
        <time>2021-08-04T14:07:20Z</time>
      </trkpt>
      <trkpt lat="42.39709" lon="-1.41868">
        <ele>343.49</ele>
        <time>2021-08-04T14:07:52Z</time>
      </trkpt>
      <trkpt lat="42.39709" lon="-1.4187">
        <ele>343.49</ele>
        <time>2021-08-04T14:08:42Z</time>
      </trkpt>
      <trkpt lat="42.39708" lon="-1.4187">
        <ele>343.49</ele>
        <time>2021-08-04T14:09:20Z</time>
      </trkpt>
      <trkpt lat="42.39707" lon="-1.4187">
        <ele>343.49</ele>
        <time>2021-08-04T14:09:55Z</time>
      </trkpt>
      <trkpt lat="42.39706" lon="-1.41869">
        <ele>343.49</ele>
        <time>2021-08-04T14:10:35Z</time>
      </trkpt>
      <trkpt lat="42.39708" lon="-1.41869">
        <ele>343.49</ele>
        <time>2021-08-04T14:11:09Z</time>
      </trkpt>
      <trkpt lat="42.39709" lon="-1.41872">
        <ele>343.49</ele>
        <time>2021-08-04T14:11:56Z</time>
      </trkpt>
      <trkpt lat="42.39709" lon="-1.41872">
        <ele>343.49</ele>
        <time>2021-08-04T14:12:28Z</time>
      </trkpt>
      <trkpt lat="42.39708" lon="-1.41873">
        <ele>343.49</ele>
        <time>2021-08-04T14:12:59Z</time>
      </trkpt>
      <trkpt lat="42.39709" lon="-1.41872">
        <ele>343.49</ele>
        <time>2021-08-04T14:13:32Z</time>
      </trkpt>
      <trkpt lat="42.39708" lon="-1.41871">
        <ele>343.49</ele>
        <time>2021-08-04T14:14:07Z</time>
      </trkpt>
      <trkpt lat="42.39709" lon="-1.41871">
        <ele>343.49</ele>
        <time>2021-08-04T14:14:35Z</time>
      </trkpt>
      <trkpt lat="42.39708" lon="-1.41871">
        <ele>343.49</ele>
        <time>2021-08-04T14:15:13Z</time>
      </trkpt>
      <trkpt lat="42.39708" lon="-1.4187">
        <ele>343.49</ele>
        <time>2021-08-04T14:16:21Z</time>
      </trkpt>
      <trkpt lat="42.39708" lon="-1.4187">
        <ele>343.49</ele>
        <time>2021-08-04T14:17:30Z</time>
      </trkpt>
      <trkpt lat="42.39709" lon="-1.41869">
        <ele>343.49</ele>
        <time>2021-08-04T14:18:42Z</time>
      </trkpt>
      <trkpt lat="42.39708" lon="-1.41868">
        <ele>343.49</ele>
        <time>2021-08-04T14:19:21Z</time>
      </trkpt>
      <trkpt lat="42.39709" lon="-1.41867">
        <ele>343.49</ele>
        <time>2021-08-04T14:19:59Z</time>
      </trkpt>
      <trkpt lat="42.39709" lon="-1.41867">
        <ele>343.49</ele>
        <time>2021-08-04T14:20:31Z</time>
      </trkpt>
      <trkpt lat="42.39709" lon="-1.41867">
        <ele>343.49</ele>
        <time>2021-08-04T14:21:11Z</time>
      </trkpt>
      <trkpt lat="42.39706" lon="-1.41868">
        <ele>343.49</ele>
        <time>2021-08-04T14:22:00Z</time>
      </trkpt>
      <trkpt lat="42.39707" lon="-1.41867">
        <ele>343.49</ele>
        <time>2021-08-04T14:22:55Z</time>
      </trkpt>
      <trkpt lat="42.39707" lon="-1.41867">
        <ele>343.49</ele>
        <time>2021-08-04T14:23:48Z</time>
      </trkpt>
      <trkpt lat="42.39707" lon="-1.41867">
        <ele>343.49</ele>
        <time>2021-08-04T14:24:31Z</time>
      </trkpt>
      <trkpt lat="42.39707" lon="-1.41868">
        <ele>343.49</ele>
        <time>2021-08-04T14:25:09Z</time>
      </trkpt>
      <trkpt lat="42.39705" lon="-1.41869">
        <ele>343.49</ele>
        <time>2021-08-04T14:26:02Z</time>
      </trkpt>
      <trkpt lat="42.39704" lon="-1.41867">
        <ele>343.49</ele>
        <time>2021-08-04T14:26:30Z</time>
      </trkpt>
      <trkpt lat="42.39704" lon="-1.41867">
        <ele>343.49</ele>
        <time>2021-08-04T14:27:19Z</time>
      </trkpt>
      <trkpt lat="42.39704" lon="-1.41865">
        <ele>343.49</ele>
        <time>2021-08-04T14:28:00Z</time>
      </trkpt>
      <trkpt lat="42.39705" lon="-1.41865">
        <ele>343.49</ele>
        <time>2021-08-04T14:28:51Z</time>
      </trkpt>
      <trkpt lat="42.39704" lon="-1.41866">
        <ele>343.49</ele>
        <time>2021-08-04T14:29:33Z</time>
      </trkpt>
      <trkpt lat="42.39703" lon="-1.41866">
        <ele>343.49</ele>
        <time>2021-08-04T14:30:26Z</time>
      </trkpt>
      <trkpt lat="42.39703" lon="-1.41866">
        <ele>343.49</ele>
        <time>2021-08-04T14:31:06Z</time>
      </trkpt>
      <trkpt lat="42.39704" lon="-1.41866">
        <ele>343.49</ele>
        <time>2021-08-04T14:31:56Z</time>
      </trkpt>
      <trkpt lat="42.39703" lon="-1.41865">
        <ele>343.49</ele>
        <time>2021-08-04T14:32:54Z</time>
      </trkpt>
      <trkpt lat="42.39703" lon="-1.41865">
        <ele>343.49</ele>
        <time>2021-08-04T14:33:34Z</time>
      </trkpt>
      <trkpt lat="42.39703" lon="-1.41865">
        <ele>343.49</ele>
        <time>2021-08-04T14:34:24Z</time>
      </trkpt>
      <trkpt lat="42.39705" lon="-1.41866">
        <ele>343.49</ele>
        <time>2021-08-04T14:35:03Z</time>
      </trkpt>
      <trkpt lat="42.39707" lon="-1.41865">
        <ele>343.49</ele>
        <time>2021-08-04T14:35:44Z</time>
      </trkpt>
      <trkpt lat="42.39708" lon="-1.41865">
        <ele>343.49</ele>
        <time>2021-08-04T14:36:54Z</time>
      </trkpt>
      <trkpt lat="42.39709" lon="-1.41865">
        <ele>343.49</ele>
        <time>2021-08-04T14:37:41Z</time>
      </trkpt>
      <trkpt lat="42.39709" lon="-1.41865">
        <ele>343.49</ele>
        <time>2021-08-04T14:38:14Z</time>
      </trkpt>
      <trkpt lat="42.39709" lon="-1.41864">
        <ele>343.49</ele>
        <time>2021-08-04T14:38:49Z</time>
      </trkpt>
      <trkpt lat="42.39709" lon="-1.41865">
        <ele>343.49</ele>
        <time>2021-08-04T14:39:44Z</time>
      </trkpt>
      <trkpt lat="42.39711" lon="-1.41867">
        <ele>343.49</ele>
        <time>2021-08-04T14:40:32Z</time>
      </trkpt>
      <trkpt lat="42.39711" lon="-1.41866">
        <ele>343.49</ele>
        <time>2021-08-04T14:41:58Z</time>
      </trkpt>
      <trkpt lat="42.39711" lon="-1.41866">
        <ele>343.49</ele>
        <time>2021-08-04T14:42:32Z</time>
      </trkpt>
      <trkpt lat="42.3971" lon="-1.41866">
        <ele>343.49</ele>
        <time>2021-08-04T14:43:11Z</time>
      </trkpt>
      <trkpt lat="42.3971" lon="-1.41867">
        <ele>343.49</ele>
        <time>2021-08-04T14:43:42Z</time>
      </trkpt>
      <trkpt lat="42.39709" lon="-1.41866">
        <ele>343.49</ele>
        <time>2021-08-04T14:44:30Z</time>
      </trkpt>
      <trkpt lat="42.39709" lon="-1.41867">
        <ele>343.49</ele>
        <time>2021-08-04T14:45:37Z</time>
      </trkpt>
      <trkpt lat="42.3971" lon="-1.41867">
        <ele>343.49</ele>
        <time>2021-08-04T14:46:33Z</time>
      </trkpt>
      <trkpt lat="42.3971" lon="-1.41864">
        <ele>343.49</ele>
        <time>2021-08-04T14:48:00Z</time>
      </trkpt>
      <trkpt lat="42.39709" lon="-1.41864">
        <ele>343.49</ele>
        <time>2021-08-04T14:48:39Z</time>
      </trkpt>
      <trkpt lat="42.3971" lon="-1.41864">
        <ele>343.49</ele>
        <time>2021-08-04T14:49:27Z</time>
      </trkpt>
      <trkpt lat="42.3971" lon="-1.41863">
        <ele>343.49</ele>
        <time>2021-08-04T14:50:12Z</time>
      </trkpt>
      <trkpt lat="42.39709" lon="-1.41863">
        <ele>343.49</ele>
        <time>2021-08-04T14:51:00Z</time>
      </trkpt>
      <trkpt lat="42.39709" lon="-1.41864">
        <ele>343.49</ele>
        <time>2021-08-04T14:51:37Z</time>
      </trkpt>
      <trkpt lat="42.3971" lon="-1.41864">
        <ele>343.49</ele>
        <time>2021-08-04T14:52:29Z</time>
      </trkpt>
      <trkpt lat="42.3971" lon="-1.41863">
        <ele>343.49</ele>
        <time>2021-08-04T14:53:20Z</time>
      </trkpt>
      <trkpt lat="42.39712" lon="-1.41863">
        <ele>343.49</ele>
        <time>2021-08-04T14:54:20Z</time>
      </trkpt>
      <trkpt lat="42.39712" lon="-1.41863">
        <ele>343.49</ele>
        <time>2021-08-04T14:55:20Z</time>
      </trkpt>
      <trkpt lat="42.39714" lon="-1.41863">
        <ele>343.49</ele>
        <time>2021-08-04T14:56:20Z</time>
      </trkpt>
      <trkpt lat="42.39713" lon="-1.41865">
        <ele>343.49</ele>
        <time>2021-08-04T14:57:21Z</time>
      </trkpt>
      <trkpt lat="42.39712" lon="-1.41866">
        <ele>343.49</ele>
        <time>2021-08-04T14:58:05Z</time>
      </trkpt>
      <trkpt lat="42.39709" lon="-1.41867">
        <ele>343.49</ele>
        <time>2021-08-04T14:59:01Z</time>
      </trkpt>
      <trkpt lat="42.39707" lon="-1.41867">
        <ele>343.49</ele>
        <time>2021-08-04T14:59:33Z</time>
      </trkpt>
      <trkpt lat="42.39707" lon="-1.41868">
        <ele>343.49</ele>
        <time>2021-08-04T15:00:30Z</time>
      </trkpt>
      <trkpt lat="42.39708" lon="-1.41867">
        <ele>343.49</ele>
        <time>2021-08-04T15:01:37Z</time>
      </trkpt>
      <trkpt lat="42.39709" lon="-1.41867">
        <ele>343.49</ele>
        <time>2021-08-04T15:02:33Z</time>
      </trkpt>
      <trkpt lat="42.39709" lon="-1.41867">
        <ele>343.49</ele>
        <time>2021-08-04T15:03:40Z</time>
      </trkpt>
      <trkpt lat="42.39709" lon="-1.41865">
        <ele>343.49</ele>
        <time>2021-08-04T15:05:17Z</time>
      </trkpt>
      <trkpt lat="42.39708" lon="-1.41864">
        <ele>343.49</ele>
        <time>2021-08-04T15:06:15Z</time>
      </trkpt>
      <trkpt lat="42.39707" lon="-1.41867">
        <ele>343.49</ele>
        <time>2021-08-04T15:07:34Z</time>
      </trkpt>
      <trkpt lat="42.39708" lon="-1.41866">
        <ele>343.49</ele>
        <time>2021-08-04T15:08:36Z</time>
      </trkpt>
      <trkpt lat="42.39705" lon="-1.41864">
        <ele>343.49</ele>
        <time>2021-08-04T15:09:44Z</time>
      </trkpt>
      <trkpt lat="42.39706" lon="-1.41864">
        <ele>343.49</ele>
        <time>2021-08-04T15:10:38Z</time>
      </trkpt>
      <trkpt lat="42.39707" lon="-1.41864">
        <ele>343.49</ele>
        <time>2021-08-04T15:11:25Z</time>
      </trkpt>
      <trkpt lat="42.39707" lon="-1.41865">
        <ele>343.49</ele>
        <time>2021-08-04T15:12:08Z</time>
      </trkpt>
      <trkpt lat="42.39707" lon="-1.41866">
        <ele>343.49</ele>
        <time>2021-08-04T15:12:58Z</time>
      </trkpt>
      <trkpt lat="42.39707" lon="-1.41866">
        <ele>343.49</ele>
        <time>2021-08-04T15:14:37Z</time>
      </trkpt>
      <trkpt lat="42.39708" lon="-1.41867">
        <ele>343.49</ele>
        <time>2021-08-04T15:15:16Z</time>
      </trkpt>
      <trkpt lat="42.39708" lon="-1.41867">
        <ele>343.49</ele>
        <time>2021-08-04T15:16:11Z</time>
      </trkpt>
      <trkpt lat="42.39709" lon="-1.41864">
        <ele>343.49</ele>
        <time>2021-08-04T15:17:02Z</time>
      </trkpt>
      <trkpt lat="42.39709" lon="-1.41865">
        <ele>343.49</ele>
        <time>2021-08-04T15:17:56Z</time>
      </trkpt>
      <trkpt lat="42.39709" lon="-1.41865">
        <ele>343.49</ele>
        <time>2021-08-04T15:18:48Z</time>
      </trkpt>
      <trkpt lat="42.39709" lon="-1.41866">
        <ele>343.49</ele>
        <time>2021-08-04T15:19:26Z</time>
      </trkpt>
      <trkpt lat="42.39709" lon="-1.41867">
        <ele>343.49</ele>
        <time>2021-08-04T15:19:49Z</time>
      </trkpt>
      <trkpt lat="42.39703" lon="-1.41872">
        <ele>344.82</ele>
        <time>2021-08-04T15:50:36Z</time>
      </trkpt>
      <trkpt lat="42.39702" lon="-1.41868">
        <ele>344.82</ele>
        <time>2021-08-04T15:50:37Z</time>
      </trkpt>
      <trkpt lat="42.39699" lon="-1.41864">
        <ele>344.82</ele>
        <time>2021-08-04T15:50:47Z</time>
      </trkpt>
      <trkpt lat="42.39707" lon="-1.4184">
        <ele>342.48</ele>
        <time>2021-08-04T15:50:56Z</time>
      </trkpt>
      <trkpt lat="42.39717" lon="-1.41835">
        <ele>342.52</ele>
        <time>2021-08-04T15:51:14Z</time>
      </trkpt>
      <trkpt lat="42.39737" lon="-1.41825">
        <ele>343.62</ele>
        <time>2021-08-04T15:51:33Z</time>
      </trkpt>
      <trkpt lat="42.39738" lon="-1.41779">
        <ele>345.61</ele>
        <time>2021-08-04T15:51:49Z</time>
      </trkpt>
      <trkpt lat="42.39742" lon="-1.41772">
        <ele>346.04</ele>
        <time>2021-08-04T15:51:54Z</time>
      </trkpt>
      <trkpt lat="42.39754" lon="-1.41779">
        <ele>347.29</ele>
        <time>2021-08-04T15:51:59Z</time>
      </trkpt>
      <trkpt lat="42.39775" lon="-1.41807">
        <ele>349</ele>
        <time>2021-08-04T15:52:08Z</time>
      </trkpt>
      <trkpt lat="42.39827" lon="-1.41891">
        <ele>350.01</ele>
        <time>2021-08-04T15:52:20Z</time>
      </trkpt>
      <trkpt lat="42.3989" lon="-1.41986">
        <ele>351.23</ele>
        <time>2021-08-04T15:52:32Z</time>
      </trkpt>
      <trkpt lat="42.39927" lon="-1.42011">
        <ele>351.84</ele>
        <time>2021-08-04T15:52:37Z</time>
      </trkpt>
      <trkpt lat="42.40017" lon="-1.42039">
        <ele>354.72</ele>
        <time>2021-08-04T15:52:46Z</time>
      </trkpt>
      <trkpt lat="42.40072" lon="-1.42014">
        <ele>358.04</ele>
        <time>2021-08-04T15:52:51Z</time>
      </trkpt>
      <trkpt lat="42.40138" lon="-1.41924">
        <ele>362.01</ele>
        <time>2021-08-04T15:52:58Z</time>
      </trkpt>
      <trkpt lat="42.40198" lon="-1.41843">
        <ele>365.09</ele>
        <time>2021-08-04T15:53:06Z</time>
      </trkpt>
      <trkpt lat="42.40263" lon="-1.41757">
        <ele>367.43</ele>
        <time>2021-08-04T15:53:14Z</time>
      </trkpt>
      <trkpt lat="42.40316" lon="-1.41735">
        <ele>370.01</ele>
        <time>2021-08-04T15:53:20Z</time>
      </trkpt>
      <trkpt lat="42.40325" lon="-1.41737">
        <ele>370.49</ele>
        <time>2021-08-04T15:53:21Z</time>
      </trkpt>
      <trkpt lat="42.40451" lon="-1.41776">
        <ele>373.97</ele>
        <time>2021-08-04T15:53:34Z</time>
      </trkpt>
      <trkpt lat="42.40572" lon="-1.4179">
        <ele>374.7</ele>
        <time>2021-08-04T15:53:45Z</time>
      </trkpt>
      <trkpt lat="42.40762" lon="-1.41786">
        <ele>375.83</ele>
        <time>2021-08-04T15:54:00Z</time>
      </trkpt>
      <trkpt lat="42.40833" lon="-1.41786">
        <ele>376.37</ele>
        <time>2021-08-04T15:54:06Z</time>
      </trkpt>
      <trkpt lat="42.40896" lon="-1.41814">
        <ele>376.49</ele>
        <time>2021-08-04T15:54:12Z</time>
      </trkpt>
      <trkpt lat="42.40909" lon="-1.41816">
        <ele>376.56</ele>
        <time>2021-08-04T15:54:13Z</time>
      </trkpt>
      <trkpt lat="42.41101" lon="-1.41823">
        <ele>373.45</ele>
        <time>2021-08-04T15:54:27Z</time>
      </trkpt>
      <trkpt lat="42.41161" lon="-1.41824">
        <ele>370.38</ele>
        <time>2021-08-04T15:54:31Z</time>
      </trkpt>
      <trkpt lat="42.41204" lon="-1.41826">
        <ele>368.35</ele>
        <time>2021-08-04T15:54:34Z</time>
      </trkpt>
      <trkpt lat="42.41262" lon="-1.41813">
        <ele>366.64</ele>
        <time>2021-08-04T15:54:38Z</time>
      </trkpt>
      <trkpt lat="42.41405" lon="-1.41805">
        <ele>366.78</ele>
        <time>2021-08-04T15:54:49Z</time>
      </trkpt>
      <trkpt lat="42.41548" lon="-1.41789">
        <ele>367.11</ele>
        <time>2021-08-04T15:55:00Z</time>
      </trkpt>
      <trkpt lat="42.41558" lon="-1.41787">
        <ele>367.06</ele>
        <time>2021-08-04T15:55:02Z</time>
      </trkpt>
      <trkpt lat="42.4156" lon="-1.41788">
        <ele>365.59</ele>
        <time>2021-08-04T15:55:17Z</time>
      </trkpt>
      <trkpt lat="42.41606" lon="-1.41778">
        <ele>365.74</ele>
        <time>2021-08-04T15:55:24Z</time>
      </trkpt>
      <trkpt lat="42.41618" lon="-1.41776">
        <ele>365.93</ele>
        <time>2021-08-04T15:55:25Z</time>
      </trkpt>
      <trkpt lat="42.41709" lon="-1.41799">
        <ele>367.78</ele>
        <time>2021-08-04T15:55:31Z</time>
      </trkpt>
      <trkpt lat="42.41862" lon="-1.41819">
        <ele>370.07</ele>
        <time>2021-08-04T15:55:39Z</time>
      </trkpt>
      <trkpt lat="42.41909" lon="-1.41818">
        <ele>370.56</ele>
        <time>2021-08-04T15:55:43Z</time>
      </trkpt>
      <trkpt lat="42.4192" lon="-1.41818">
        <ele>368.67</ele>
        <time>2021-08-04T15:55:49Z</time>
      </trkpt>
      <trkpt lat="42.41959" lon="-1.41817">
        <ele>367.46</ele>
        <time>2021-08-04T15:55:55Z</time>
      </trkpt>
      <trkpt lat="42.4203" lon="-1.41815">
        <ele>370.86</ele>
        <time>2021-08-04T15:56:01Z</time>
      </trkpt>
      <trkpt lat="42.42042" lon="-1.41815">
        <ele>371.8</ele>
        <time>2021-08-04T15:56:02Z</time>
      </trkpt>
      <trkpt lat="42.42129" lon="-1.41845">
        <ele>375.74</ele>
        <time>2021-08-04T15:56:08Z</time>
      </trkpt>
      <trkpt lat="42.42146" lon="-1.4185">
        <ele>376.54</ele>
        <time>2021-08-04T15:56:09Z</time>
      </trkpt>
      <trkpt lat="42.42236" lon="-1.41834">
        <ele>379.2</ele>
        <time>2021-08-04T15:56:14Z</time>
      </trkpt>
      <trkpt lat="42.42289" lon="-1.41805">
        <ele>379.45</ele>
        <time>2021-08-04T15:56:17Z</time>
      </trkpt>
      <trkpt lat="42.42411" lon="-1.41739">
        <ele>383.11</ele>
        <time>2021-08-04T15:56:25Z</time>
      </trkpt>
      <trkpt lat="42.42479" lon="-1.41702">
        <ele>386.91</ele>
        <time>2021-08-04T15:56:29Z</time>
      </trkpt>
      <trkpt lat="42.42589" lon="-1.41627">
        <ele>388.45</ele>
        <time>2021-08-04T15:56:36Z</time>
      </trkpt>
      <trkpt lat="42.42643" lon="-1.41559">
        <ele>386.72</ele>
        <time>2021-08-04T15:56:42Z</time>
      </trkpt>
      <trkpt lat="42.42654" lon="-1.41555">
        <ele>386.57</ele>
        <time>2021-08-04T15:56:43Z</time>
      </trkpt>
      <trkpt lat="42.4273" lon="-1.4152">
        <ele>388.07</ele>
        <time>2021-08-04T15:56:48Z</time>
      </trkpt>
      <trkpt lat="42.42825" lon="-1.41463">
        <ele>391.43</ele>
        <time>2021-08-04T15:56:53Z</time>
      </trkpt>
      <trkpt lat="42.42905" lon="-1.41416">
        <ele>394.8</ele>
        <time>2021-08-04T15:56:57Z</time>
      </trkpt>
      <trkpt lat="42.42924" lon="-1.41407">
        <ele>395.4</ele>
        <time>2021-08-04T15:56:58Z</time>
      </trkpt>
      <trkpt lat="42.42983" lon="-1.41357">
        <ele>395.91</ele>
        <time>2021-08-04T15:57:02Z</time>
      </trkpt>
      <trkpt lat="42.4303" lon="-1.41352">
        <ele>393.58</ele>
        <time>2021-08-04T15:57:06Z</time>
      </trkpt>
      <trkpt lat="42.43071" lon="-1.41358">
        <ele>391.98</ele>
        <time>2021-08-04T15:57:09Z</time>
      </trkpt>
      <trkpt lat="42.43203" lon="-1.4135">
        <ele>394.24</ele>
        <time>2021-08-04T15:57:17Z</time>
      </trkpt>
      <trkpt lat="42.43236" lon="-1.41344">
        <ele>394.97</ele>
        <time>2021-08-04T15:57:19Z</time>
      </trkpt>
      <trkpt lat="42.43378" lon="-1.41324">
        <ele>396.85</ele>
        <time>2021-08-04T15:57:26Z</time>
      </trkpt>
      <trkpt lat="42.43437" lon="-1.41313">
        <ele>399.34</ele>
        <time>2021-08-04T15:57:29Z</time>
      </trkpt>
      <trkpt lat="42.43511" lon="-1.4128">
        <ele>399.68</ele>
        <time>2021-08-04T15:57:33Z</time>
      </trkpt>
      <trkpt lat="42.43589" lon="-1.41204">
        <ele>397.27</ele>
        <time>2021-08-04T15:57:39Z</time>
      </trkpt>
      <trkpt lat="42.43602" lon="-1.41201">
        <ele>396.89</ele>
        <time>2021-08-04T15:57:40Z</time>
      </trkpt>
      <trkpt lat="42.43673" lon="-1.41182">
        <ele>396.99</ele>
        <time>2021-08-04T15:57:45Z</time>
      </trkpt>
      <trkpt lat="42.43727" lon="-1.41207">
        <ele>399.39</ele>
        <time>2021-08-04T15:57:50Z</time>
      </trkpt>
      <trkpt lat="42.43755" lon="-1.41241">
        <ele>401.07</ele>
        <time>2021-08-04T15:57:53Z</time>
      </trkpt>
      <trkpt lat="42.43778" lon="-1.413">
        <ele>403.72</ele>
        <time>2021-08-04T15:57:57Z</time>
      </trkpt>
      <trkpt lat="42.43816" lon="-1.41373">
        <ele>406.16</ele>
        <time>2021-08-04T15:58:01Z</time>
      </trkpt>
      <trkpt lat="42.4387" lon="-1.41446">
        <ele>410.22</ele>
        <time>2021-08-04T15:58:06Z</time>
      </trkpt>
      <trkpt lat="42.43884" lon="-1.41474">
        <ele>410.61</ele>
        <time>2021-08-04T15:58:10Z</time>
      </trkpt>
      <trkpt lat="42.43882" lon="-1.41472">
        <ele>407.27</ele>
        <time>2021-08-04T15:58:14Z</time>
      </trkpt>
      <trkpt lat="42.43882" lon="-1.41471">
        <ele>404.53</ele>
        <time>2021-08-04T15:58:22Z</time>
      </trkpt>
      <trkpt lat="42.43893" lon="-1.4149">
        <ele>404.16</ele>
        <time>2021-08-04T15:58:26Z</time>
      </trkpt>
      <trkpt lat="42.43911" lon="-1.41603">
        <ele>405.25</ele>
        <time>2021-08-04T15:58:34Z</time>
      </trkpt>
      <trkpt lat="42.43909" lon="-1.41673">
        <ele>407.46</ele>
        <time>2021-08-04T15:58:38Z</time>
      </trkpt>
      <trkpt lat="42.43945" lon="-1.41766">
        <ele>410.55</ele>
        <time>2021-08-04T15:58:44Z</time>
      </trkpt>
      <trkpt lat="42.43958" lon="-1.4177">
        <ele>410.94</ele>
        <time>2021-08-04T15:58:45Z</time>
      </trkpt>
      <trkpt lat="42.43999" lon="-1.41785">
        <ele>411.99</ele>
        <time>2021-08-04T15:58:48Z</time>
      </trkpt>
      <trkpt lat="42.44063" lon="-1.41775">
        <ele>415</ele>
        <time>2021-08-04T15:58:54Z</time>
      </trkpt>
      <trkpt lat="42.44147" lon="-1.41769">
        <ele>414.05</ele>
        <time>2021-08-04T15:59:02Z</time>
      </trkpt>
      <trkpt lat="42.44191" lon="-1.41751">
        <ele>414.08</ele>
        <time>2021-08-04T15:59:06Z</time>
      </trkpt>
      <trkpt lat="42.44259" lon="-1.41719">
        <ele>412.31</ele>
        <time>2021-08-04T15:59:11Z</time>
      </trkpt>
      <trkpt lat="42.4429" lon="-1.41718">
        <ele>411.3</ele>
        <time>2021-08-04T15:59:13Z</time>
      </trkpt>
      <trkpt lat="42.44343" lon="-1.41707">
        <ele>407.98</ele>
        <time>2021-08-04T15:59:18Z</time>
      </trkpt>
      <trkpt lat="42.44374" lon="-1.41725">
        <ele>404.9</ele>
        <time>2021-08-04T15:59:21Z</time>
      </trkpt>
      <trkpt lat="42.44466" lon="-1.41749">
        <ele>403.81</ele>
        <time>2021-08-04T15:59:28Z</time>
      </trkpt>
      <trkpt lat="42.4457" lon="-1.41732">
        <ele>403.02</ele>
        <time>2021-08-04T15:59:35Z</time>
      </trkpt>
      <trkpt lat="42.44655" lon="-1.41696">
        <ele>401.66</ele>
        <time>2021-08-04T15:59:40Z</time>
      </trkpt>
      <trkpt lat="42.44703" lon="-1.41655">
        <ele>399.48</ele>
        <time>2021-08-04T15:59:44Z</time>
      </trkpt>
      <trkpt lat="42.44768" lon="-1.41637">
        <ele>394.99</ele>
        <time>2021-08-04T15:59:49Z</time>
      </trkpt>
      <trkpt lat="42.44802" lon="-1.41627">
        <ele>393.53</ele>
        <time>2021-08-04T15:59:51Z</time>
      </trkpt>
      <trkpt lat="42.44863" lon="-1.41593">
        <ele>390.87</ele>
        <time>2021-08-04T15:59:55Z</time>
      </trkpt>
      <trkpt lat="42.44928" lon="-1.41605">
        <ele>390.2</ele>
        <time>2021-08-04T16:00:01Z</time>
      </trkpt>
      <trkpt lat="42.44958" lon="-1.41599">
        <ele>390.79</ele>
        <time>2021-08-04T16:00:03Z</time>
      </trkpt>
      <trkpt lat="42.45005" lon="-1.41586">
        <ele>392.71</ele>
        <time>2021-08-04T16:00:06Z</time>
      </trkpt>
      <trkpt lat="42.45094" lon="-1.41534">
        <ele>395.94</ele>
        <time>2021-08-04T16:00:12Z</time>
      </trkpt>
      <trkpt lat="42.45133" lon="-1.41526">
        <ele>396.77</ele>
        <time>2021-08-04T16:00:15Z</time>
      </trkpt>
      <trkpt lat="42.45181" lon="-1.41556">
        <ele>396.1</ele>
        <time>2021-08-04T16:00:20Z</time>
      </trkpt>
      <trkpt lat="42.4522" lon="-1.4154">
        <ele>394.48</ele>
        <time>2021-08-04T16:00:24Z</time>
      </trkpt>
      <trkpt lat="42.45273" lon="-1.41472">
        <ele>390.51</ele>
        <time>2021-08-04T16:00:30Z</time>
      </trkpt>
      <trkpt lat="42.45313" lon="-1.41415">
        <ele>386.79</ele>
        <time>2021-08-04T16:00:35Z</time>
      </trkpt>
      <trkpt lat="42.45337" lon="-1.41387">
        <ele>383.74</ele>
        <time>2021-08-04T16:00:38Z</time>
      </trkpt>
      <trkpt lat="42.45368" lon="-1.4135">
        <ele>380.39</ele>
        <time>2021-08-04T16:00:41Z</time>
      </trkpt>
      <trkpt lat="42.45412" lon="-1.4129">
        <ele>376.64</ele>
        <time>2021-08-04T16:00:45Z</time>
      </trkpt>
      <trkpt lat="42.45491" lon="-1.41206">
        <ele>373.52</ele>
        <time>2021-08-04T16:00:51Z</time>
      </trkpt>
      <trkpt lat="42.45575" lon="-1.4111">
        <ele>372.02</ele>
        <time>2021-08-04T16:00:57Z</time>
      </trkpt>
      <trkpt lat="42.45604" lon="-1.41048">
        <ele>370.4</ele>
        <time>2021-08-04T16:01:01Z</time>
      </trkpt>
      <trkpt lat="42.45604" lon="-1.40926">
        <ele>366.98</ele>
        <time>2021-08-04T16:01:07Z</time>
      </trkpt>
      <trkpt lat="42.45623" lon="-1.40892">
        <ele>363.99</ele>
        <time>2021-08-04T16:01:12Z</time>
      </trkpt>
      <trkpt lat="42.45633" lon="-1.40948">
        <ele>362.35</ele>
        <time>2021-08-04T16:01:16Z</time>
      </trkpt>
      <trkpt lat="42.45666" lon="-1.40996">
        <ele>360.88</ele>
        <time>2021-08-04T16:01:21Z</time>
      </trkpt>
      <trkpt lat="42.45704" lon="-1.40985">
        <ele>359.95</ele>
        <time>2021-08-04T16:01:24Z</time>
      </trkpt>
      <trkpt lat="42.45824" lon="-1.40913">
        <ele>359.58</ele>
        <time>2021-08-04T16:01:31Z</time>
      </trkpt>
      <trkpt lat="42.45943" lon="-1.40854">
        <ele>361.14</ele>
        <time>2021-08-04T16:01:37Z</time>
      </trkpt>
      <trkpt lat="42.45994" lon="-1.40813">
        <ele>361.37</ele>
        <time>2021-08-04T16:01:41Z</time>
      </trkpt>
      <trkpt lat="42.46029" lon="-1.40816">
        <ele>360.91</ele>
        <time>2021-08-04T16:01:45Z</time>
      </trkpt>
      <trkpt lat="42.46095" lon="-1.40824">
        <ele>360.92</ele>
        <time>2021-08-04T16:01:50Z</time>
      </trkpt>
      <trkpt lat="42.46285" lon="-1.40793">
        <ele>362.97</ele>
        <time>2021-08-04T16:01:59Z</time>
      </trkpt>
      <trkpt lat="42.46496" lon="-1.40741">
        <ele>365.94</ele>
        <time>2021-08-04T16:02:07Z</time>
      </trkpt>
      <trkpt lat="42.46604" lon="-1.40711">
        <ele>367.28</ele>
        <time>2021-08-04T16:02:12Z</time>
      </trkpt>
      <trkpt lat="42.46656" lon="-1.40707">
        <ele>367.07</ele>
        <time>2021-08-04T16:02:15Z</time>
      </trkpt>
      <trkpt lat="42.46716" lon="-1.40696">
        <ele>366.04</ele>
        <time>2021-08-04T16:02:19Z</time>
      </trkpt>
      <trkpt lat="42.46752" lon="-1.40715">
        <ele>363.78</ele>
        <time>2021-08-04T16:02:23Z</time>
      </trkpt>
      <trkpt lat="42.468" lon="-1.40729">
        <ele>362.53</ele>
        <time>2021-08-04T16:02:27Z</time>
      </trkpt>
      <trkpt lat="42.46893" lon="-1.40781">
        <ele>362.87</ele>
        <time>2021-08-04T16:02:33Z</time>
      </trkpt>
      <trkpt lat="42.47032" lon="-1.40939">
        <ele>366.51</ele>
        <time>2021-08-04T16:02:41Z</time>
      </trkpt>
      <trkpt lat="42.47115" lon="-1.41051">
        <ele>370.01</ele>
        <time>2021-08-04T16:02:46Z</time>
      </trkpt>
      <trkpt lat="42.47129" lon="-1.41071">
        <ele>370.67</ele>
        <time>2021-08-04T16:02:47Z</time>
      </trkpt>
      <trkpt lat="42.47199" lon="-1.4124">
        <ele>374.43</ele>
        <time>2021-08-04T16:02:54Z</time>
      </trkpt>
      <trkpt lat="42.4728" lon="-1.41375">
        <ele>377.15</ele>
        <time>2021-08-04T16:03:00Z</time>
      </trkpt>
      <trkpt lat="42.47373" lon="-1.41517">
        <ele>380.81</ele>
        <time>2021-08-04T16:03:06Z</time>
      </trkpt>
      <trkpt lat="42.47398" lon="-1.41547">
        <ele>381.74</ele>
        <time>2021-08-04T16:03:08Z</time>
      </trkpt>
      <trkpt lat="42.47432" lon="-1.41619">
        <ele>382.67</ele>
        <time>2021-08-04T16:03:12Z</time>
      </trkpt>
      <trkpt lat="42.47492" lon="-1.41883">
        <ele>385.41</ele>
        <time>2021-08-04T16:03:22Z</time>
      </trkpt>
      <trkpt lat="42.47518" lon="-1.41971">
        <ele>386.4</ele>
        <time>2021-08-04T16:03:26Z</time>
      </trkpt>
      <trkpt lat="42.47563" lon="-1.42026">
        <ele>386.06</ele>
        <time>2021-08-04T16:03:30Z</time>
      </trkpt>
      <trkpt lat="42.47593" lon="-1.42042">
        <ele>385.65</ele>
        <time>2021-08-04T16:03:32Z</time>
      </trkpt>
      <trkpt lat="42.47687" lon="-1.42046">
        <ele>383.74</ele>
        <time>2021-08-04T16:03:37Z</time>
      </trkpt>
      <trkpt lat="42.4778" lon="-1.42017">
        <ele>380.7</ele>
        <time>2021-08-04T16:03:42Z</time>
      </trkpt>
      <trkpt lat="42.47842" lon="-1.41967">
        <ele>377.78</ele>
        <time>2021-08-04T16:03:46Z</time>
      </trkpt>
      <trkpt lat="42.47916" lon="-1.41854">
        <ele>375.1</ele>
        <time>2021-08-04T16:03:52Z</time>
      </trkpt>
      <trkpt lat="42.48052" lon="-1.41688">
        <ele>375.84</ele>
        <time>2021-08-04T16:04:00Z</time>
      </trkpt>
      <trkpt lat="42.48148" lon="-1.41555">
        <ele>376.16</ele>
        <time>2021-08-04T16:04:06Z</time>
      </trkpt>
      <trkpt lat="42.48276" lon="-1.41456">
        <ele>374.98</ele>
        <time>2021-08-04T16:04:13Z</time>
      </trkpt>
      <trkpt lat="42.48405" lon="-1.41403">
        <ele>373.6</ele>
        <time>2021-08-04T16:04:19Z</time>
      </trkpt>
      <trkpt lat="42.48443" lon="-1.41387">
        <ele>372.99</ele>
        <time>2021-08-04T16:04:21Z</time>
      </trkpt>
      <trkpt lat="42.48544" lon="-1.41368">
        <ele>370.13</ele>
        <time>2021-08-04T16:04:27Z</time>
      </trkpt>
      <trkpt lat="42.48581" lon="-1.41388">
        <ele>369.29</ele>
        <time>2021-08-04T16:04:31Z</time>
      </trkpt>
      <trkpt lat="42.48623" lon="-1.41422">
        <ele>370.32</ele>
        <time>2021-08-04T16:04:41Z</time>
      </trkpt>
      <trkpt lat="42.48652" lon="-1.41426">
        <ele>369.13</ele>
        <time>2021-08-04T16:04:58Z</time>
      </trkpt>
      <trkpt lat="42.48753" lon="-1.41449">
        <ele>370.39</ele>
        <time>2021-08-04T16:05:05Z</time>
      </trkpt>
      <trkpt lat="42.48822" lon="-1.4149">
        <ele>372.92</ele>
        <time>2021-08-04T16:05:09Z</time>
      </trkpt>
      <trkpt lat="42.48938" lon="-1.41631">
        <ele>377.06</ele>
        <time>2021-08-04T16:05:16Z</time>
      </trkpt>
      <trkpt lat="42.48964" lon="-1.41669">
        <ele>377.84</ele>
        <time>2021-08-04T16:05:18Z</time>
      </trkpt>
      <trkpt lat="42.49" lon="-1.41816">
        <ele>378.76</ele>
        <time>2021-08-04T16:05:24Z</time>
      </trkpt>
      <trkpt lat="42.49019" lon="-1.41964">
        <ele>377.08</ele>
        <time>2021-08-04T16:05:30Z</time>
      </trkpt>
      <trkpt lat="42.49048" lon="-1.4201">
        <ele>373.98</ele>
        <time>2021-08-04T16:05:34Z</time>
      </trkpt>
      <trkpt lat="42.49075" lon="-1.4203">
        <ele>372.91</ele>
        <time>2021-08-04T16:05:36Z</time>
      </trkpt>
      <trkpt lat="42.49164" lon="-1.42189">
        <ele>373.47</ele>
        <time>2021-08-04T16:05:44Z</time>
      </trkpt>
      <trkpt lat="42.49218" lon="-1.42314">
        <ele>376.4</ele>
        <time>2021-08-04T16:05:50Z</time>
      </trkpt>
      <trkpt lat="42.49237" lon="-1.42347">
        <ele>377.44</ele>
        <time>2021-08-04T16:05:52Z</time>
      </trkpt>
      <trkpt lat="42.4926" lon="-1.42374">
        <ele>378.42</ele>
        <time>2021-08-04T16:05:54Z</time>
      </trkpt>
      <trkpt lat="42.49286" lon="-1.4242">
        <ele>378.91</ele>
        <time>2021-08-04T16:05:57Z</time>
      </trkpt>
      <trkpt lat="42.49314" lon="-1.42461">
        <ele>379.13</ele>
        <time>2021-08-04T16:06:00Z</time>
      </trkpt>
      <trkpt lat="42.49383" lon="-1.42491">
        <ele>381.38</ele>
        <time>2021-08-04T16:06:07Z</time>
      </trkpt>
      <trkpt lat="42.49395" lon="-1.42489">
        <ele>381.88</ele>
        <time>2021-08-04T16:06:08Z</time>
      </trkpt>
      <trkpt lat="42.49435" lon="-1.42479">
        <ele>383.44</ele>
        <time>2021-08-04T16:06:11Z</time>
      </trkpt>
      <trkpt lat="42.49494" lon="-1.4242">
        <ele>385.27</ele>
        <time>2021-08-04T16:06:17Z</time>
      </trkpt>
      <trkpt lat="42.49531" lon="-1.42386">
        <ele>385.91</ele>
        <time>2021-08-04T16:06:20Z</time>
      </trkpt>
      <trkpt lat="42.49662" lon="-1.42313">
        <ele>389.41</ele>
        <time>2021-08-04T16:06:28Z</time>
      </trkpt>
      <trkpt lat="42.49694" lon="-1.42295">
        <ele>389.61</ele>
        <time>2021-08-04T16:06:30Z</time>
      </trkpt>
      <trkpt lat="42.49752" lon="-1.4224">
        <ele>388.42</ele>
        <time>2021-08-04T16:06:34Z</time>
      </trkpt>
      <trkpt lat="42.49867" lon="-1.42161">
        <ele>384.71</ele>
        <time>2021-08-04T16:06:41Z</time>
      </trkpt>
      <trkpt lat="42.49964" lon="-1.42061">
        <ele>381.61</ele>
        <time>2021-08-04T16:06:47Z</time>
      </trkpt>
      <trkpt lat="42.50075" lon="-1.4194">
        <ele>380.11</ele>
        <time>2021-08-04T16:06:54Z</time>
      </trkpt>
      <trkpt lat="42.50185" lon="-1.41857">
        <ele>377.74</ele>
        <time>2021-08-04T16:07:01Z</time>
      </trkpt>
      <trkpt lat="42.50287" lon="-1.41813">
        <ele>374.24</ele>
        <time>2021-08-04T16:07:07Z</time>
      </trkpt>
      <trkpt lat="42.50321" lon="-1.41801">
        <ele>373.07</ele>
        <time>2021-08-04T16:07:09Z</time>
      </trkpt>
      <trkpt lat="42.50442" lon="-1.41824">
        <ele>370.46</ele>
        <time>2021-08-04T16:07:16Z</time>
      </trkpt>
      <trkpt lat="42.50495" lon="-1.41843">
        <ele>370.66</ele>
        <time>2021-08-04T16:07:19Z</time>
      </trkpt>
      <trkpt lat="42.5056" lon="-1.41879">
        <ele>372.11</ele>
        <time>2021-08-04T16:07:23Z</time>
      </trkpt>
      <trkpt lat="42.50637" lon="-1.41957">
        <ele>374.8</ele>
        <time>2021-08-04T16:07:28Z</time>
      </trkpt>
      <trkpt lat="42.50689" lon="-1.41989">
        <ele>377.19</ele>
        <time>2021-08-04T16:07:32Z</time>
      </trkpt>
      <trkpt lat="42.50721" lon="-1.4205">
        <ele>378.83</ele>
        <time>2021-08-04T16:07:37Z</time>
      </trkpt>
      <trkpt lat="42.50797" lon="-1.42231">
        <ele>382.66</ele>
        <time>2021-08-04T16:07:46Z</time>
      </trkpt>
      <trkpt lat="42.50826" lon="-1.42303">
        <ele>385.45</ele>
        <time>2021-08-04T16:07:50Z</time>
      </trkpt>
      <trkpt lat="42.50864" lon="-1.42343">
        <ele>388.27</ele>
        <time>2021-08-04T16:07:54Z</time>
      </trkpt>
      <trkpt lat="42.509" lon="-1.42362">
        <ele>390.24</ele>
        <time>2021-08-04T16:07:57Z</time>
      </trkpt>
      <trkpt lat="42.50944" lon="-1.42373">
        <ele>392.08</ele>
        <time>2021-08-04T16:08:01Z</time>
      </trkpt>
      <trkpt lat="42.50985" lon="-1.42372">
        <ele>392.84</ele>
        <time>2021-08-04T16:08:04Z</time>
      </trkpt>
      <trkpt lat="42.51094" lon="-1.42311">
        <ele>389.11</ele>
        <time>2021-08-04T16:08:12Z</time>
      </trkpt>
      <trkpt lat="42.51122" lon="-1.42289">
        <ele>387.13</ele>
        <time>2021-08-04T16:08:14Z</time>
      </trkpt>
      <trkpt lat="42.51173" lon="-1.42229">
        <ele>382.87</ele>
        <time>2021-08-04T16:08:18Z</time>
      </trkpt>
      <trkpt lat="42.51239" lon="-1.4213">
        <ele>379.7</ele>
        <time>2021-08-04T16:08:23Z</time>
      </trkpt>
      <trkpt lat="42.51314" lon="-1.42009">
        <ele>378.16</ele>
        <time>2021-08-04T16:08:29Z</time>
      </trkpt>
      <trkpt lat="42.51391" lon="-1.41821">
        <ele>376.99</ele>
        <time>2021-08-04T16:08:38Z</time>
      </trkpt>
      <trkpt lat="42.51439" lon="-1.41702">
        <ele>380.7</ele>
        <time>2021-08-04T16:08:44Z</time>
      </trkpt>
      <trkpt lat="42.51462" lon="-1.41648">
        <ele>383.33</ele>
        <time>2021-08-04T16:08:47Z</time>
      </trkpt>
      <trkpt lat="42.51488" lon="-1.41578">
        <ele>385.26</ele>
        <time>2021-08-04T16:08:51Z</time>
      </trkpt>
      <trkpt lat="42.51513" lon="-1.41523">
        <ele>386.28</ele>
        <time>2021-08-04T16:08:54Z</time>
      </trkpt>
      <trkpt lat="42.5157" lon="-1.41443">
        <ele>387.81</ele>
        <time>2021-08-04T16:09:00Z</time>
      </trkpt>
      <trkpt lat="42.51619" lon="-1.4141">
        <ele>388.39</ele>
        <time>2021-08-04T16:09:04Z</time>
      </trkpt>
      <trkpt lat="42.51734" lon="-1.41323">
        <ele>387.66</ele>
        <time>2021-08-04T16:09:13Z</time>
      </trkpt>
      <trkpt lat="42.51787" lon="-1.41271">
        <ele>387.87</ele>
        <time>2021-08-04T16:09:18Z</time>
      </trkpt>
      <trkpt lat="42.51826" lon="-1.41268">
        <ele>387.42</ele>
        <time>2021-08-04T16:09:22Z</time>
      </trkpt>
      <trkpt lat="42.51864" lon="-1.41241">
        <ele>385.34</ele>
        <time>2021-08-04T16:09:29Z</time>
      </trkpt>
      <trkpt lat="42.51849" lon="-1.41159">
        <ele>382.18</ele>
        <time>2021-08-04T16:09:35Z</time>
      </trkpt>
      <trkpt lat="42.51827" lon="-1.40995">
        <ele>377.61</ele>
        <time>2021-08-04T16:09:45Z</time>
      </trkpt>
      <trkpt lat="42.51811" lon="-1.40852">
        <ele>376.27</ele>
        <time>2021-08-04T16:09:54Z</time>
      </trkpt>
      <trkpt lat="42.51832" lon="-1.40737">
        <ele>379.46</ele>
        <time>2021-08-04T16:10:01Z</time>
      </trkpt>
      <trkpt lat="42.51848" lon="-1.40671">
        <ele>380.15</ele>
        <time>2021-08-04T16:10:05Z</time>
      </trkpt>
      <trkpt lat="42.51878" lon="-1.40625">
        <ele>380.44</ele>
        <time>2021-08-04T16:10:09Z</time>
      </trkpt>
      <trkpt lat="42.51917" lon="-1.40533">
        <ele>379.94</ele>
        <time>2021-08-04T16:10:16Z</time>
      </trkpt>
      <trkpt lat="42.51944" lon="-1.40474">
        <ele>378.51</ele>
        <time>2021-08-04T16:10:22Z</time>
      </trkpt>
      <trkpt lat="42.51957" lon="-1.40456">
        <ele>378.16</ele>
        <time>2021-08-04T16:10:25Z</time>
      </trkpt>
      <trkpt lat="42.51973" lon="-1.40451">
        <ele>377.44</ele>
        <time>2021-08-04T16:10:29Z</time>
      </trkpt>
      <trkpt lat="42.51976" lon="-1.40453">
        <ele>377.21</ele>
        <time>2021-08-04T16:10:30Z</time>
      </trkpt>
      <trkpt lat="42.51979" lon="-1.40456">
        <ele>376.99</ele>
        <time>2021-08-04T16:10:31Z</time>
      </trkpt>
      <trkpt lat="42.51981" lon="-1.4046">
        <ele>376.84</ele>
        <time>2021-08-04T16:10:32Z</time>
      </trkpt>
      <trkpt lat="42.51983" lon="-1.40466">
        <ele>376.7</ele>
        <time>2021-08-04T16:10:33Z</time>
      </trkpt>
      <trkpt lat="42.51986" lon="-1.40472">
        <ele>376.53</ele>
        <time>2021-08-04T16:10:34Z</time>
      </trkpt>
      <trkpt lat="42.51992" lon="-1.40485">
        <ele>376.16</ele>
        <time>2021-08-04T16:10:36Z</time>
      </trkpt>
      <trkpt lat="42.51996" lon="-1.40491">
        <ele>375.97</ele>
        <time>2021-08-04T16:10:37Z</time>
      </trkpt>
      <trkpt lat="42.51999" lon="-1.40495">
        <ele>375.79</ele>
        <time>2021-08-04T16:10:38Z</time>
      </trkpt>
      <trkpt lat="42.52035" lon="-1.40537">
        <ele>375.49</ele>
        <time>2021-08-04T16:10:50Z</time>
      </trkpt>
      <trkpt lat="42.52074" lon="-1.40587">
        <ele>376.91</ele>
        <time>2021-08-04T16:11:04Z</time>
      </trkpt>
      <trkpt lat="42.52093" lon="-1.40609">
        <ele>375.93</ele>
        <time>2021-08-04T16:11:13Z</time>
      </trkpt>
      <trkpt lat="42.52119" lon="-1.40593">
        <ele>375.62</ele>
        <time>2021-08-04T16:11:18Z</time>
      </trkpt>
      <trkpt lat="42.52128" lon="-1.40573">
        <ele>375.5</ele>
        <time>2021-08-04T16:11:20Z</time>
      </trkpt>
      <trkpt lat="42.52143" lon="-1.40554">
        <ele>374.55</ele>
        <time>2021-08-04T16:11:24Z</time>
      </trkpt>
      <trkpt lat="42.52175" lon="-1.405">
        <ele>373.4</ele>
        <time>2021-08-04T16:11:29Z</time>
      </trkpt>
      <trkpt lat="42.52188" lon="-1.40461">
        <ele>372.85</ele>
        <time>2021-08-04T16:11:32Z</time>
      </trkpt>
      <trkpt lat="42.52227" lon="-1.40403">
        <ele>371.32</ele>
        <time>2021-08-04T16:11:39Z</time>
      </trkpt>
      <trkpt lat="42.52269" lon="-1.40368">
        <ele>370.95</ele>
        <time>2021-08-04T16:11:44Z</time>
      </trkpt>
      <trkpt lat="42.52313" lon="-1.40302">
        <ele>371.82</ele>
        <time>2021-08-04T16:11:51Z</time>
      </trkpt>
      <trkpt lat="42.52364" lon="-1.40223">
        <ele>374.36</ele>
        <time>2021-08-04T16:11:59Z</time>
      </trkpt>
      <trkpt lat="42.52381" lon="-1.40193">
        <ele>375.09</ele>
        <time>2021-08-04T16:12:02Z</time>
      </trkpt>
      <trkpt lat="42.52437" lon="-1.40072">
        <ele>377.18</ele>
        <time>2021-08-04T16:12:15Z</time>
      </trkpt>
      <trkpt lat="42.52512" lon="-1.39927">
        <ele>378.87</ele>
        <time>2021-08-04T16:12:28Z</time>
      </trkpt>
      <trkpt lat="42.52581" lon="-1.39777">
        <ele>381</ele>
        <time>2021-08-04T16:12:38Z</time>
      </trkpt>
      <trkpt lat="42.52681" lon="-1.39611">
        <ele>383.74</ele>
        <time>2021-08-04T16:12:46Z</time>
      </trkpt>
      <trkpt lat="42.52704" lon="-1.39569">
        <ele>384.16</ele>
        <time>2021-08-04T16:12:48Z</time>
      </trkpt>
      <trkpt lat="42.52803" lon="-1.39458">
        <ele>384.86</ele>
        <time>2021-08-04T16:12:55Z</time>
      </trkpt>
      <trkpt lat="42.52876" lon="-1.39354">
        <ele>385.76</ele>
        <time>2021-08-04T16:13:01Z</time>
      </trkpt>
      <trkpt lat="42.52918" lon="-1.39339">
        <ele>384.96</ele>
        <time>2021-08-04T16:13:05Z</time>
      </trkpt>
      <trkpt lat="42.53035" lon="-1.39385">
        <ele>382.01</ele>
        <time>2021-08-04T16:13:14Z</time>
      </trkpt>
      <trkpt lat="42.53121" lon="-1.39461">
        <ele>382.11</ele>
        <time>2021-08-04T16:13:22Z</time>
      </trkpt>
      <trkpt lat="42.53166" lon="-1.39473">
        <ele>383.15</ele>
        <time>2021-08-04T16:13:28Z</time>
      </trkpt>
      <trkpt lat="42.5317" lon="-1.39472">
        <ele>383.58</ele>
        <time>2021-08-04T16:13:30Z</time>
      </trkpt>
      <trkpt lat="42.53174" lon="-1.39469">
        <ele>383.85</ele>
        <time>2021-08-04T16:13:32Z</time>
      </trkpt>
      <trkpt lat="42.53186" lon="-1.39486">
        <ele>384.58</ele>
        <time>2021-08-04T16:13:36Z</time>
      </trkpt>
      <trkpt lat="42.53223" lon="-1.39594">
        <ele>386.3</ele>
        <time>2021-08-04T16:13:43Z</time>
      </trkpt>
      <trkpt lat="42.53306" lon="-1.39799">
        <ele>388.95</ele>
        <time>2021-08-04T16:13:52Z</time>
      </trkpt>
      <trkpt lat="42.53437" lon="-1.40059">
        <ele>391.96</ele>
        <time>2021-08-04T16:14:03Z</time>
      </trkpt>
      <trkpt lat="42.53514" lon="-1.40251">
        <ele>393.25</ele>
        <time>2021-08-04T16:14:12Z</time>
      </trkpt>
      <trkpt lat="42.53606" lon="-1.40463">
        <ele>396.27</ele>
        <time>2021-08-04T16:14:22Z</time>
      </trkpt>
      <trkpt lat="42.53721" lon="-1.40579">
        <ele>398.41</ele>
        <time>2021-08-04T16:14:30Z</time>
      </trkpt>
      <trkpt lat="42.53775" lon="-1.40629">
        <ele>398.93</ele>
        <time>2021-08-04T16:14:35Z</time>
      </trkpt>
      <trkpt lat="42.53787" lon="-1.4064">
        <ele>398.5</ele>
        <time>2021-08-04T16:14:37Z</time>
      </trkpt>
      <trkpt lat="42.53813" lon="-1.40654">
        <ele>396.88</ele>
        <time>2021-08-04T16:14:43Z</time>
      </trkpt>
      <trkpt lat="42.53873" lon="-1.40673">
        <ele>396.83</ele>
        <time>2021-08-04T16:14:49Z</time>
      </trkpt>
      <trkpt lat="42.53997" lon="-1.40704">
        <ele>399.6</ele>
        <time>2021-08-04T16:14:57Z</time>
      </trkpt>
      <trkpt lat="42.5415" lon="-1.40745">
        <ele>402.63</ele>
        <time>2021-08-04T16:15:07Z</time>
      </trkpt>
      <trkpt lat="42.5426" lon="-1.40774">
        <ele>405.67</ele>
        <time>2021-08-04T16:15:14Z</time>
      </trkpt>
      <trkpt lat="42.54342" lon="-1.40795">
        <ele>408.68</ele>
        <time>2021-08-04T16:15:19Z</time>
      </trkpt>
      <trkpt lat="42.54458" lon="-1.4085">
        <ele>411.71</ele>
        <time>2021-08-04T16:15:27Z</time>
      </trkpt>
      <trkpt lat="42.54564" lon="-1.4093">
        <ele>413.44</ele>
        <time>2021-08-04T16:15:37Z</time>
      </trkpt>
      <trkpt lat="42.54665" lon="-1.41005">
        <ele>416.87</ele>
        <time>2021-08-04T16:15:44Z</time>
      </trkpt>
      <trkpt lat="42.54739" lon="-1.41058">
        <ele>419.15</ele>
        <time>2021-08-04T16:15:49Z</time>
      </trkpt>
      <trkpt lat="42.54796" lon="-1.41081">
        <ele>421.3</ele>
        <time>2021-08-04T16:15:53Z</time>
      </trkpt>
      <trkpt lat="42.54969" lon="-1.41074">
        <ele>425.15</ele>
        <time>2021-08-04T16:16:04Z</time>
      </trkpt>
      <trkpt lat="42.55" lon="-1.41065">
        <ele>425.85</ele>
        <time>2021-08-04T16:16:06Z</time>
      </trkpt>
      <trkpt lat="42.55089" lon="-1.4109">
        <ele>427.41</ele>
        <time>2021-08-04T16:16:12Z</time>
      </trkpt>
      <trkpt lat="42.55113" lon="-1.41101">
        <ele>427.98</ele>
        <time>2021-08-04T16:16:14Z</time>
      </trkpt>
      <trkpt lat="42.55154" lon="-1.41144">
        <ele>428.99</ele>
        <time>2021-08-04T16:16:18Z</time>
      </trkpt>
      <trkpt lat="42.55189" lon="-1.41212">
        <ele>430.47</ele>
        <time>2021-08-04T16:16:22Z</time>
      </trkpt>
      <trkpt lat="42.55284" lon="-1.4132">
        <ele>433.88</ele>
        <time>2021-08-04T16:16:30Z</time>
      </trkpt>
      <trkpt lat="42.55403" lon="-1.41435">
        <ele>435.66</ele>
        <time>2021-08-04T16:16:41Z</time>
      </trkpt>
      <trkpt lat="42.55439" lon="-1.41464">
        <ele>435.97</ele>
        <time>2021-08-04T16:16:44Z</time>
      </trkpt>
      <trkpt lat="42.55511" lon="-1.41476">
        <ele>437.13</ele>
        <time>2021-08-04T16:16:50Z</time>
      </trkpt>
      <trkpt lat="42.55564" lon="-1.41457">
        <ele>440.71</ele>
        <time>2021-08-04T16:16:56Z</time>
      </trkpt>
      <trkpt lat="42.55582" lon="-1.41459">
        <ele>442.24</ele>
        <time>2021-08-04T16:16:59Z</time>
      </trkpt>
      <trkpt lat="42.55602" lon="-1.41456">
        <ele>443.52</ele>
        <time>2021-08-04T16:17:02Z</time>
      </trkpt>
      <trkpt lat="42.55639" lon="-1.41403">
        <ele>444.42</ele>
        <time>2021-08-04T16:17:08Z</time>
      </trkpt>
      <trkpt lat="42.55693" lon="-1.41238">
        <ele>445.26</ele>
        <time>2021-08-04T16:17:16Z</time>
      </trkpt>
      <trkpt lat="42.55744" lon="-1.41081">
        <ele>448.5</ele>
        <time>2021-08-04T16:17:22Z</time>
      </trkpt>
      <trkpt lat="42.55858" lon="-1.40785">
        <ele>450.71</ele>
        <time>2021-08-04T16:17:34Z</time>
      </trkpt>
      <trkpt lat="42.55995" lon="-1.40592">
        <ele>451.67</ele>
        <time>2021-08-04T16:17:44Z</time>
      </trkpt>
      <trkpt lat="42.56247" lon="-1.40309">
        <ele>453.07</ele>
        <time>2021-08-04T16:18:00Z</time>
      </trkpt>
      <trkpt lat="42.56361" lon="-1.40147">
        <ele>453.97</ele>
        <time>2021-08-04T16:18:08Z</time>
      </trkpt>
      <trkpt lat="42.56419" lon="-1.39951">
        <ele>455.66</ele>
        <time>2021-08-04T16:18:15Z</time>
      </trkpt>
      <trkpt lat="42.56468" lon="-1.39691">
        <ele>456.92</ele>
        <time>2021-08-04T16:18:24Z</time>
      </trkpt>
      <trkpt lat="42.56556" lon="-1.39529">
        <ele>456.54</ele>
        <time>2021-08-04T16:18:31Z</time>
      </trkpt>
      <trkpt lat="42.56675" lon="-1.39421">
        <ele>453.89</ele>
        <time>2021-08-04T16:18:38Z</time>
      </trkpt>
      <trkpt lat="42.56774" lon="-1.39376">
        <ele>450.33</ele>
        <time>2021-08-04T16:18:43Z</time>
      </trkpt>
      <trkpt lat="42.56855" lon="-1.39342">
        <ele>446.68</ele>
        <time>2021-08-04T16:18:47Z</time>
      </trkpt>
      <trkpt lat="42.56914" lon="-1.39317">
        <ele>443.35</ele>
        <time>2021-08-04T16:18:50Z</time>
      </trkpt>
      <trkpt lat="42.56976" lon="-1.39291">
        <ele>439.69</ele>
        <time>2021-08-04T16:18:53Z</time>
      </trkpt>
      <trkpt lat="42.57058" lon="-1.39259">
        <ele>435.87</ele>
        <time>2021-08-04T16:18:57Z</time>
      </trkpt>
      <trkpt lat="42.57274" lon="-1.39204">
        <ele>434.03</ele>
        <time>2021-08-04T16:19:07Z</time>
      </trkpt>
      <trkpt lat="42.57429" lon="-1.39224">
        <ele>435.23</ele>
        <time>2021-08-04T16:19:14Z</time>
      </trkpt>
      <trkpt lat="42.576" lon="-1.39258">
        <ele>437.77</ele>
        <time>2021-08-04T16:19:22Z</time>
      </trkpt>
      <trkpt lat="42.57806" lon="-1.39259">
        <ele>441.06</ele>
        <time>2021-08-04T16:19:33Z</time>
      </trkpt>
      <trkpt lat="42.57932" lon="-1.39258">
        <ele>444.1</ele>
        <time>2021-08-04T16:19:40Z</time>
      </trkpt>
      <trkpt lat="42.58078" lon="-1.39217">
        <ele>445.57</ele>
        <time>2021-08-04T16:19:48Z</time>
      </trkpt>
      <trkpt lat="42.58192" lon="-1.39124">
        <ele>448.73</ele>
        <time>2021-08-04T16:19:55Z</time>
      </trkpt>
      <trkpt lat="42.58268" lon="-1.39022">
        <ele>452.24</ele>
        <time>2021-08-04T16:20:01Z</time>
      </trkpt>
      <trkpt lat="42.58347" lon="-1.38922">
        <ele>455.82</ele>
        <time>2021-08-04T16:20:07Z</time>
      </trkpt>
      <trkpt lat="42.58424" lon="-1.38848">
        <ele>459.45</ele>
        <time>2021-08-04T16:20:12Z</time>
      </trkpt>
      <trkpt lat="42.58485" lon="-1.38786">
        <ele>462.96</ele>
        <time>2021-08-04T16:20:16Z</time>
      </trkpt>
      <trkpt lat="42.5854" lon="-1.3871">
        <ele>466.33</ele>
        <time>2021-08-04T16:20:20Z</time>
      </trkpt>
      <trkpt lat="42.58579" lon="-1.38618">
        <ele>469.99</ele>
        <time>2021-08-04T16:20:24Z</time>
      </trkpt>
      <trkpt lat="42.58606" lon="-1.38491">
        <ele>473.23</ele>
        <time>2021-08-04T16:20:29Z</time>
      </trkpt>
      <trkpt lat="42.58602" lon="-1.38296">
        <ele>476.05</ele>
        <time>2021-08-04T16:20:36Z</time>
      </trkpt>
      <trkpt lat="42.58572" lon="-1.37909">
        <ele>475.99</ele>
        <time>2021-08-04T16:20:49Z</time>
      </trkpt>
      <trkpt lat="42.58556" lon="-1.37472">
        <ele>475.72</ele>
        <time>2021-08-04T16:21:04Z</time>
      </trkpt>
      <trkpt lat="42.5854" lon="-1.37178">
        <ele>473.1</ele>
        <time>2021-08-04T16:21:15Z</time>
      </trkpt>
      <trkpt lat="42.58474" lon="-1.36984">
        <ele>473.06</ele>
        <time>2021-08-04T16:21:23Z</time>
      </trkpt>
      <trkpt lat="42.58357" lon="-1.36763">
        <ele>471.24</ele>
        <time>2021-08-04T16:21:34Z</time>
      </trkpt>
      <trkpt lat="42.58234" lon="-1.36532">
        <ele>469.78</ele>
        <time>2021-08-04T16:21:46Z</time>
      </trkpt>
    </trkseg>
  </trk>
</gpx>